Observation data for Persimmon Gap on 10/18/2019      Previous  Date       Current Mesonet Observations  Soil Data  Daily Summary Page  Observations in Plain Language
KPG1 180500Z 02013KT 19/11 A299 RMK A01 T01930106  RH  057%=      5-min Rain = 0
KPG1 180501Z 02014KT 19/11 A299 RMK A01 T01930107  RH  057%=      5-min Rain = 0
KPG1 180502Z 02015KT 19/11 A299 RMK A01 T01930107  RH  058%=      5-min Rain = 0
KPG1 180503Z 02015KT 19/11 A299 RMK A01 T01940108  RH  057%=      5-min Rain = 0
KPG1 180504Z 02014KT 19/11 A299 RMK A01 T01940107  RH  057%=      5-min Rain = 0
KPG1 180505Z 02013KT 19/11 A299 RMK A01 T01940107  RH  057%=      5-min Rain = 0
KPG1 180506Z 02014KT 19/11 A299 RMK A01 T01930107  RH  057%=      5-min Rain = 0
KPG1 180507Z 02013KT 19/11 A299 RMK A01 T01930108  RH  058%=      5-min Rain = 0
KPG1 180508Z 02013KT 19/11 A299 RMK A01 T01930108  RH  058%=      5-min Rain = 0
KPG1 180509Z 02014KT 19/11 A299 RMK A01 T01930107  RH  057%=      5-min Rain = 0
KPG1 180510Z 01014KT 19/11 A299 RMK A01 T01930108  RH  058%=      5-min Rain = 0
KPG1 180511Z 02014KT 19/11 A299 RMK A01 T01930107  RH  058%=      5-min Rain = 0
KPG1 180512Z 02014KT 19/11 A299 RMK A01 T01930107  RH  058%=      5-min Rain = 0
KPG1 180513Z 02014KT 19/11 A299 RMK A01 T01920107  RH  058%=      5-min Rain = 0
KPG1 180514Z 02014KT 19/11 A299 RMK A01 T01920107  RH  058%=      5-min Rain = 0
KPG1 180515Z 02012KT 19/11 A299 RMK A01 T01920107  RH  058%=      5-min Rain = 0
KPG1 180516Z 02013KT 19/11 A299 RMK A01 T01920107  RH  058%=      5-min Rain = 0
KPG1 180517Z 02013KT 19/11 A299 RMK A01 T01920107  RH  058%=      5-min Rain = 0
KPG1 180518Z 02016KT 19/11 A299 RMK A01 T01920107  RH  058%=      5-min Rain = 0
KPG1 180519Z 02015KT 19/11 A299 RMK A01 T01920107  RH  058%=      5-min Rain = 0
KPG1 180520Z 02014KT 19/11 A299 RMK A01 T01920107  RH  058%=      5-min Rain = 0
KPG1 180521Z 02012KT 19/11 A299 RMK A01 T01920108  RH  058%=      5-min Rain = 0
KPG1 180522Z 02013KT 19/11 A299 RMK A01 T01920107  RH  058%=      5-min Rain = 0
KPG1 180523Z 02014KT 19/11 A299 RMK A01 T01920107  RH  058%=      5-min Rain = 0
KPG1 180524Z 02014KT 19/11 A299 RMK A01 T01920107  RH  058%=      5-min Rain = 0
KPG1 180525Z 02013KT 19/11 A299 RMK A01 T01920108  RH  058%=      5-min Rain = 0
KPG1 180526Z 02013KT 19/11 A299 RMK A01 T01920108  RH  058%=      5-min Rain = 0
KPG1 180527Z 02013KT 19/11 A299 RMK A01 T01920108  RH  058%=      5-min Rain = 0
KPG1 180528Z 02013KT 19/11 A299 RMK A01 T01920108  RH  058%=      5-min Rain = 0
KPG1 180529Z 02013KT 19/11 A299 RMK A01 T01920108  RH  058%=      5-min Rain = 0
KPG1 180530Z 03013KT 19/11 A299 RMK A01 T01920108  RH  058%=      5-min Rain = 0
KPG1 180531Z 02011KT 19/11 A299 RMK A01 T01920107  RH  058%=      5-min Rain = 0
KPG1 180532Z 03012KT 19/11 A299 RMK A01 T01900107  RH  058%=      5-min Rain = 0
KPG1 180533Z 02012KT 19/11 A299 RMK A01 T01890106  RH  059%=      5-min Rain = 0
KPG1 180534Z 02011KT 19/11 A299 RMK A01 T01890107  RH  059%=      5-min Rain = 0
KPG1 180535Z 03011KT 19/11 A299 RMK A01 T01890107  RH  059%=      5-min Rain = 0
KPG1 180536Z 03011KT 19/11 A299 RMK A01 T01880106  RH  059%=      5-min Rain = 0
KPG1 180537Z 02012KT 19/11 A299 RMK A01 T01870106  RH  059%=      5-min Rain = 0
KPG1 180538Z 02013KT 19/11 A299 RMK A01 T01870107  RH  060%=      5-min Rain = 0
KPG1 180539Z 03012KT 19/11 A299 RMK A01 T01890107  RH  059%=      5-min Rain = 0
KPG1 180540Z 03012KT 19/11 A299 RMK A01 T01880106  RH  059%=      5-min Rain = 0
KPG1 180541Z 03012KT 19/11 A299 RMK A01 T01870106  RH  059%=      5-min Rain = 0
KPG1 180542Z 03011KT 19/11 A299 RMK A01 T01860106  RH  060%=      5-min Rain = 0
KPG1 180543Z 03011KT 19/11 A299 RMK A01 T01850106  RH  060%=      5-min Rain = 0
KPG1 180544Z 02012KT 19/11 A299 RMK A01 T01850106  RH  060%=      5-min Rain = 0
KPG1 180545Z 02012KT 19/11 A299 RMK A01 T01860107  RH  060%=      5-min Rain = 0
KPG1 180546Z 02011KT 19/11 A299 RMK A01 T01880108  RH  060%=      5-min Rain = 0
KPG1 180547Z 02011KT 19/11 A299 RMK A01 T01880108  RH  059%=      5-min Rain = 0
KPG1 180548Z 02012KT 19/11 A299 RMK A01 T01890108  RH  059%=      5-min Rain = 0
KPG1 180549Z 02012KT 19/11 A299 RMK A01 T01900108  RH  059%=      5-min Rain = 0
KPG1 180550Z 03011KT 19/11 A299 RMK A01 T01900107  RH  059%=      5-min Rain = 0
KPG1 180551Z 03011KT 19/11 A299 RMK A01 T01880106  RH  059%=      5-min Rain = 0
KPG1 180552Z 02011KT 19/11 A299 RMK A01 T01870106  RH  059%=      5-min Rain = 0
KPG1 180553Z 03012KT 19/11 A299 RMK A01 T01860106  RH  060%=      5-min Rain = 0
KPG1 180554Z 03011KT 19/11 A299 RMK A01 T01860106  RH  060%=      5-min Rain = 0
KPG1 180555Z 03010KT 19/11 A299 RMK A01 T01850106  RH  060%=      5-min Rain = 0
KPG1 180556Z 02010KT 18/11 A299 RMK A01 T01840106  RH  060%=      5-min Rain = 0
KPG1 180557Z 02011KT 19/11 A299 RMK A01 T01850107  RH  060%=      5-min Rain = 0
KPG1 180558Z 01011KT 19/11 A299 RMK A01 T01870108  RH  060%=      5-min Rain = 0
KPG1 180559Z 01011KT 19/11 A299 RMK A01 T01880108  RH  060%=      5-min Rain = 0
KPG1 180600Z 02011KT 19/11 A299 RMK A01 T01880107  RH  059%=      5-min Rain = 0
KPG1 180601Z 02011KT 19/11 A299 RMK A01 T01890107  RH  059%=      5-min Rain = 0
KPG1 180602Z 02010KT 19/11 A299 RMK A01 T01890108  RH  059%=      5-min Rain = 0
KPG1 180603Z 02011KT 19/11 A299 RMK A01 T01890107  RH  059%=      5-min Rain = 0
KPG1 180604Z 02012KT 19/11 A299 RMK A01 T01890107  RH  059%=      5-min Rain = 0
KPG1 180605Z 02013KT 19/11 A299 RMK A01 T01890107  RH  059%=      5-min Rain = 0
KPG1 180606Z 02012KT 19/11 A299 RMK A01 T01900107  RH  059%=      5-min Rain = 0
KPG1 180607Z 02011KT 19/11 A299 RMK A01 T01900107  RH  059%=      5-min Rain = 0
KPG1 180608Z 02011KT 19/11 A299 RMK A01 T01910108  RH  059%=      5-min Rain = 0
KPG1 180609Z 02012KT 19/11 A299 RMK A01 T01900107  RH  058%=      5-min Rain = 0
KPG1 180610Z 02011KT 19/11 A2989 RMK A01 T01900107  RH  059%=      5-min Rain = 0
KPG1 180611Z 02010KT 19/11 A2989 RMK A01 T01900107  RH  058%=      5-min Rain = 0
KPG1 180612Z 02011KT 19/11 A2989 RMK A01 T01900107  RH  058%=      5-min Rain = 0
KPG1 180613Z 02012KT 19/11 A2989 RMK A01 T01900107  RH  058%=      5-min Rain = 0
KPG1 180614Z 02010KT 19/11 A2989 RMK A01 T01900107  RH  058%=      5-min Rain = 0
KPG1 180615Z 01011KT 19/11 A2989 RMK A01 T01900107  RH  058%=      5-min Rain = 0
KPG1 180616Z 01011KT 19/11 A2989 RMK A01 T01900107  RH  058%=      5-min Rain = 0
KPG1 180617Z 02010KT 19/11 A299 RMK A01 T01910107  RH  058%=      5-min Rain = 0
KPG1 180618Z 02011KT 19/11 A299 RMK A01 T01900107  RH  058%=      5-min Rain = 0
KPG1 180619Z 02011KT 19/11 A299 RMK A01 T01900107  RH  058%=      5-min Rain = 0
KPG1 180620Z 02011KT 19/11 A299 RMK A01 T01900107  RH  058%=      5-min Rain = 0
KPG1 180621Z 03009KT 19/11 A299 RMK A01 T01900107  RH  058%=      5-min Rain = 0
KPG1 180622Z 02009KT 19/11 A299 RMK A01 T01900106  RH  058%=      5-min Rain = 0
KPG1 180623Z 02009KT 19/11 A299 RMK A01 T01870105  RH  059%=      5-min Rain = 0
KPG1 180624Z 02009KT 19/11 A299 RMK A01 T01860105  RH  059%=      5-min Rain = 0
KPG1 180625Z 02009KT 19/11 A299 RMK A01 T01850105  RH  060%=      5-min Rain = 0
KPG1 180626Z 03009KT 19/11 A299 RMK A01 T01850105  RH  060%=      5-min Rain = 0
KPG1 180627Z 03009KT 18/11 A299 RMK A01 T01840105  RH  060%=      5-min Rain = 0
KPG1 180628Z 04009KT 18/11 A299 RMK A01 T01830105  RH  060%=      5-min Rain = 0
KPG1 180629Z 04009KT 18/11 A299 RMK A01 T01820105  RH  061%=      5-min Rain = 0
KPG1 180630Z 04009KT 18/11 A299 RMK A01 T01820105  RH  061%=      5-min Rain = 0
KPG1 180631Z 04009KT 18/11 A299 RMK A01 T01820105  RH  061%=      5-min Rain = 0
KPG1 180632Z 03008KT 18/11 A299 RMK A01 T01820106  RH  061%=      5-min Rain = 0
KPG1 180633Z 03008KT 18/11 A299 RMK A01 T01820105  RH  061%=      5-min Rain = 0
KPG1 180634Z 03009KT 18/11 A299 RMK A01 T01810105  RH  061%=      5-min Rain = 0
KPG1 180635Z 03009KT 18/11 A299 RMK A01 T01810105  RH  061%=      5-min Rain = 0
KPG1 180636Z 03008KT 18/11 A299 RMK A01 T01810105  RH  061%=      5-min Rain = 0
KPG1 180637Z 04008KT 18/11 A299 RMK A01 T01810105  RH  061%=      5-min Rain = 0
KPG1 180638Z 04007KT 18/11 A299 RMK A01 T01810105  RH  061%=      5-min Rain = 0
KPG1 180639Z 05007KT 18/11 A299 RMK A01 T01800105  RH  061%=      5-min Rain = 0
KPG1 180640Z 05008KT 18/10 A299 RMK A01 T01790104  RH  062%=      5-min Rain = 0
KPG1 180641Z 05008KT 18/11 A299 RMK A01 T01790105  RH  062%=      5-min Rain = 0
KPG1 180642Z 05007KT 18/11 A299 RMK A01 T01790105  RH  062%=      5-min Rain = 0
KPG1 180643Z 04006KT 18/11 A299 RMK A01 T01800106  RH  062%=      5-min Rain = 0
KPG1 180644Z 03005KT 18/11 A299 RMK A01 T01800105  RH  061%=      5-min Rain = 0
KPG1 180645Z 04006KT 18/11 A299 RMK A01 T01800105  RH  061%=      5-min Rain = 0
KPG1 180646Z 04007KT 18/10 A299 RMK A01 T01780104  RH  062%=      5-min Rain = 0
KPG1 180647Z 04008KT 18/11 A299 RMK A01 T01780105  RH  062%=      5-min Rain = 0
KPG1 180648Z 04008KT 18/11 A2989 RMK A01 T01780105  RH  062%=      5-min Rain = 0
KPG1 180649Z 05008KT 18/11 A2989 RMK A01 T01780105  RH  062%=      5-min Rain = 0
KPG1 180650Z 05009KT 18/11 A2989 RMK A01 T01780105  RH  062%=      5-min Rain = 0
KPG1 180651Z 04009KT 18/11 A2989 RMK A01 T01780105  RH  062%=      5-min Rain = 0
KPG1 180652Z 04009KT 18/11 A2989 RMK A01 T01780105  RH  062%=      5-min Rain = 0
KPG1 180653Z 04008KT 18/11 A2989 RMK A01 T01790105  RH  062%=      5-min Rain = 0
KPG1 180654Z 04008KT 18/11 A2989 RMK A01 T01800106  RH  062%=      5-min Rain = 0
KPG1 180655Z 05009KT 18/11 A2989 RMK A01 T01810106  RH  061%=      5-min Rain = 0
KPG1 180656Z 04009KT 18/11 A2989 RMK A01 T01810106  RH  061%=      5-min Rain = 0
KPG1 180657Z 04009KT 18/11 A2989 RMK A01 T01830106  RH  061%=      5-min Rain = 0
KPG1 180658Z 04009KT 18/11 A299 RMK A01 T01840107  RH  061%=      5-min Rain = 0
KPG1 180659Z 04009KT 18/11 A299 RMK A01 T01840107  RH  060%=      5-min Rain = 0
KPG1 180700Z 04008KT 18/11 A299 RMK A01 T01840106  RH  060%=      5-min Rain = 0
KPG1 180701Z 04008KT 18/11 A2989 RMK A01 T01840106  RH  060%=      5-min Rain = 0
KPG1 180702Z 05009KT 18/11 A2989 RMK A01 T01830106  RH  061%=      5-min Rain = 0
KPG1 180703Z 05009KT 18/11 A2989 RMK A01 T01830106  RH  061%=      5-min Rain = 0
KPG1 180704Z 05008KT 18/11 A2989 RMK A01 T01830106  RH  061%=      5-min Rain = 0
KPG1 180705Z 05008KT 18/11 A2989 RMK A01 T01830106  RH  061%=      5-min Rain = 0
KPG1 180706Z 05008KT 18/11 A2989 RMK A01 T01830106  RH  061%=      5-min Rain = 0
KPG1 180707Z 05007KT 18/11 A2989 RMK A01 T01820106  RH  061%=      5-min Rain = 0
KPG1 180708Z 05007KT 18/11 A2989 RMK A01 T01820106  RH  061%=      5-min Rain = 0
KPG1 180709Z 05006KT 18/11 A2989 RMK A01 T01820106  RH  061%=      5-min Rain = 0
KPG1 180710Z 06007KT 18/11 A2989 RMK A01 T01810105  RH  061%=      5-min Rain = 0
KPG1 180711Z 06009KT 18/11 A2989 RMK A01 T01810106  RH  062%=      5-min Rain = 0
KPG1 180712Z 05009KT 18/11 A2989 RMK A01 T01820106  RH  061%=      5-min Rain = 0
KPG1 180713Z 05009KT 18/11 A2989 RMK A01 T01840107  RH  061%=      5-min Rain = 0
KPG1 180714Z 06008KT 18/11 A299 RMK A01 T01840106  RH  060%=      5-min Rain = 0
KPG1 180715Z 06008KT 19/11 A299 RMK A01 T01850106  RH  060%=      5-min Rain = 0
KPG1 180716Z 06008KT 19/11 A299 RMK A01 T01850106  RH  060%=      5-min Rain = 0
KPG1 180717Z 06008KT 19/11 A299 RMK A01 T01850107  RH  060%=      5-min Rain = 0
KPG1 180718Z 05008KT 19/11 A299 RMK A01 T01850106  RH  060%=      5-min Rain = 0
KPG1 180719Z 05008KT 19/11 A2989 RMK A01 T01850107  RH  060%=      5-min Rain = 0
KPG1 180720Z 05009KT 19/11 A2989 RMK A01 T01850107  RH  060%=      5-min Rain = 0
KPG1 180721Z 05009KT 19/11 A2989 RMK A01 T01850107  RH  060%=      5-min Rain = 0
KPG1 180722Z 05008KT 19/11 A2989 RMK A01 T01850107  RH  060%=      5-min Rain = 0
KPG1 180723Z 05007KT 19/11 A299 RMK A01 T01850106  RH  060%=      5-min Rain = 0
KPG1 180724Z 05007KT 18/11 A299 RMK A01 T01840106  RH  060%=      5-min Rain = 0
KPG1 180725Z 06008KT 18/11 A299 RMK A01 T01830106  RH  061%=      5-min Rain = 0
KPG1 180726Z 06009KT 18/11 A2989 RMK A01 T01820106  RH  061%=      5-min Rain = 0
KPG1 180727Z 06010KT 18/11 A2989 RMK A01 T01820106  RH  061%=      5-min Rain = 0
KPG1 180728Z 06009KT 18/11 A2989 RMK A01 T01830106  RH  061%=      5-min Rain = 0
KPG1 180729Z 06009KT 18/11 A2989 RMK A01 T01830106  RH  061%=      5-min Rain = 0
KPG1 180730Z 06009KT 18/11 A2989 RMK A01 T01830106  RH  061%=      5-min Rain = 0
KPG1 180731Z 06009KT 18/11 A2989 RMK A01 T01840106  RH  060%=      5-min Rain = 0
KPG1 180732Z 06008KT 18/11 A2989 RMK A01 T01840106  RH  060%=      5-min Rain = 0
KPG1 180733Z 06008KT 18/11 A2989 RMK A01 T01830106  RH  061%=      5-min Rain = 0
KPG1 180734Z 06009KT 18/11 A2989 RMK A01 T01820106  RH  061%=      5-min Rain = 0
KPG1 180735Z 06009KT 18/11 A2989 RMK A01 T01820106  RH  061%=      5-min Rain = 0
KPG1 180736Z 06009KT 18/11 A2989 RMK A01 T01820106  RH  061%=      5-min Rain = 0
KPG1 180737Z 05008KT 18/11 A2989 RMK A01 T01820106  RH  061%=      5-min Rain = 0
KPG1 180738Z 06008KT 18/11 A299 RMK A01 T01830106  RH  061%=      5-min Rain = 0
KPG1 180739Z 06008KT 18/11 A299 RMK A01 T01830106  RH  061%=      5-min Rain = 0
KPG1 180740Z 06009KT 18/11 A299 RMK A01 T01820106  RH  061%=      5-min Rain = 0
KPG1 180741Z 06009KT 18/11 A2989 RMK A01 T01820105  RH  061%=      5-min Rain = 0
KPG1 180742Z 07009KT 18/11 A2989 RMK A01 T01820106  RH  061%=      5-min Rain = 0
KPG1 180743Z 07009KT 18/11 A2989 RMK A01 T01810105  RH  061%=      5-min Rain = 0
KPG1 180744Z 07009KT 18/11 A2989 RMK A01 T01800105  RH  061%=      5-min Rain = 0
KPG1 180745Z 07009KT 18/11 A2989 RMK A01 T01800105  RH  061%=      5-min Rain = 0
KPG1 180746Z 07009KT 18/11 A299 RMK A01 T01810106  RH  061%=      5-min Rain = 0
KPG1 180747Z 07008KT 18/11 A299 RMK A01 T01820106  RH  061%=      5-min Rain = 0
KPG1 180748Z 07008KT 18/11 A299 RMK A01 T01830107  RH  061%=      5-min Rain = 0
KPG1 180749Z 06007KT 18/11 A299 RMK A01 T01830106  RH  061%=      5-min Rain = 0
KPG1 180750Z 06008KT 18/11 A2989 RMK A01 T01820106  RH  061%=      5-min Rain = 0
KPG1 180751Z 06009KT 18/11 A2989 RMK A01 T01810105  RH  061%=      5-min Rain = 0
KPG1 180752Z 06010KT 18/11 A2989 RMK A01 T01810106  RH  061%=      5-min Rain = 0
KPG1 180753Z 06010KT 18/11 A2989 RMK A01 T01800106  RH  062%=      5-min Rain = 0
KPG1 180754Z 06009KT 18/11 A2989 RMK A01 T01800106  RH  062%=      5-min Rain = 0
KPG1 180755Z 06008KT 18/11 A2989 RMK A01 T01800106  RH  062%=      5-min Rain = 0
KPG1 180756Z 06009KT 18/11 A2989 RMK A01 T01800106  RH  062%=      5-min Rain = 0
KPG1 180757Z 05007KT 18/11 A2989 RMK A01 T01800105  RH  062%=      5-min Rain = 0
KPG1 180758Z 05008KT 18/11 A299 RMK A01 T01800106  RH  062%=      5-min Rain = 0
KPG1 180759Z 05008KT 18/11 A2989 RMK A01 T01800106  RH  062%=      5-min Rain = 0
KPG1 180800Z 06009KT 18/11 A2989 RMK A01 T01800106  RH  062%=      5-min Rain = 0
KPG1 180801Z 06010KT 18/11 A2989 RMK A01 T01800106  RH  062%=      5-min Rain = 0
KPG1 180802Z 06010KT 18/11 A2989 RMK A01 T01800105  RH  062%=      5-min Rain = 0
KPG1 180803Z 06011KT 18/11 A2989 RMK A01 T01790105  RH  062%=      5-min Rain = 0
KPG1 180804Z 06010KT 18/11 A2989 RMK A01 T01800105  RH  062%=      5-min Rain = 0
KPG1 180805Z 06010KT 18/11 A2989 RMK A01 T01810105  RH  061%=      5-min Rain = 0
KPG1 180806Z 06009KT 18/11 A2989 RMK A01 T01810105  RH  061%=      5-min Rain = 0
KPG1 180807Z 06010KT 18/11 A2989 RMK A01 T01810105  RH  061%=      5-min Rain = 0
KPG1 180808Z 06010KT 18/11 A2989 RMK A01 T01810105  RH  061%=      5-min Rain = 0
KPG1 180809Z 06010KT 18/11 A2989 RMK A01 T01820106  RH  061%=      5-min Rain = 0
KPG1 180810Z 06010KT 18/11 A2989 RMK A01 T01820106  RH  061%=      5-min Rain = 0
KPG1 180811Z 07011KT 18/11 A2989 RMK A01 T01810106  RH  061%=      5-min Rain = 0
KPG1 180812Z 06008KT 18/11 A2989 RMK A01 T01810106  RH  061%=      5-min Rain = 0
KPG1 180813Z 06009KT 18/11 A2989 RMK A01 T01810106  RH  061%=      5-min Rain = 0
KPG1 180814Z 06008KT 18/11 A2989 RMK A01 T01810106  RH  061%=      5-min Rain = 0
KPG1 180815Z 06007KT 18/11 A2989 RMK A01 T01820106  RH  061%=      5-min Rain = 0
KPG1 180816Z 06009KT 18/11 A2989 RMK A01 T01820106  RH  061%=      5-min Rain = 0
KPG1 180817Z 06009KT 18/11 A2989 RMK A01 T01830106  RH  061%=      5-min Rain = 0
KPG1 180818Z 05009KT 18/11 A2989 RMK A01 T01820106  RH  061%=      5-min Rain = 0
KPG1 180819Z 05009KT 18/11 A2989 RMK A01 T01820106  RH  061%=      5-min Rain = 0
KPG1 180820Z 05008KT 18/11 A2989 RMK A01 T01820106  RH  061%=      5-min Rain = 0
KPG1 180821Z 06008KT 18/11 A2989 RMK A01 T01820106  RH  061%=      5-min Rain = 0
KPG1 180822Z 07008KT 18/11 A2989 RMK A01 T01820106  RH  061%=      5-min Rain = 0
KPG1 180823Z 06008KT 18/11 A2989 RMK A01 T01820106  RH  061%=      5-min Rain = 0
KPG1 180824Z 06007KT 18/11 A2989 RMK A01 T01820106  RH  061%=      5-min Rain = 0
KPG1 180825Z 06007KT 18/11 A2989 RMK A01 T01820106  RH  061%=      5-min Rain = 0
KPG1 180826Z 06007KT 18/11 A2989 RMK A01 T01810106  RH  061%=      5-min Rain = 0
KPG1 180827Z 06007KT 18/11 A2989 RMK A01 T01800106  RH  062%=      5-min Rain = 0
KPG1 180828Z 06006KT 18/11 A2989 RMK A01 T01800106  RH  062%=      5-min Rain = 0
KPG1 180829Z 07007KT 18/11 A2989 RMK A01 T01790106  RH  062%=      5-min Rain = 0
KPG1 180830Z 06006KT 18/11 A2989 RMK A01 T01800106  RH  062%=      5-min Rain = 0
KPG1 180831Z 06006KT 18/11 A2989 RMK A01 T01810106  RH  062%=      5-min Rain = 0
KPG1 180832Z 06007KT 18/11 A2989 RMK A01 T01810106  RH  062%=      5-min Rain = 0
KPG1 180833Z 06007KT 18/11 A2988 RMK A01 T01800106  RH  062%=      5-min Rain = 0
KPG1 180834Z 07007KT 18/11 A2988 RMK A01 T01790105  RH  062%=      5-min Rain = 0
KPG1 180835Z 06006KT 18/11 A2988 RMK A01 T01780106  RH  062%=      5-min Rain = 0
KPG1 180836Z 06006KT 18/11 A2988 RMK A01 T01780106  RH  062%=      5-min Rain = 0
KPG1 180837Z 05006KT 18/11 A2989 RMK A01 T01790106  RH  062%=      5-min Rain = 0
KPG1 180838Z 05005KT 18/11 A2989 RMK A01 T01790106  RH  062%=      5-min Rain = 0
KPG1 180839Z 06005KT 18/11 A2989 RMK A01 T01790106  RH  062%=      5-min Rain = 0
KPG1 180840Z 07004KT 18/11 A2989 RMK A01 T01790106  RH  062%=      5-min Rain = 0
KPG1 180841Z 07003KT 18/11 A2989 RMK A01 T01780105  RH  062%=      5-min Rain = 0
KPG1 180842Z 08003KT 18/11 A2989 RMK A01 T01770105  RH  063%=      5-min Rain = 0
KPG1 180843Z 08002KT 18/11 A2989 RMK A01 T01770105  RH  063%=      5-min Rain = 0
KPG1 180844Z 10003KT 18/11 A2989 RMK A01 T01760105  RH  063%=      5-min Rain = 0
KPG1 180845Z 11003KT 18/10 A2988 RMK A01 T01760104  RH  063%=      5-min Rain = 0
KPG1 180846Z 11003KT 18/10 A2988 RMK A01 T01750104  RH  063%=      5-min Rain = 0
KPG1 180847Z 14002KT 17/10 A2988 RMK A01 T01740103  RH  063%=      5-min Rain = 0
KPG1 180848Z 12002KT 17/10 A2988 RMK A01 T01740103  RH  063%=      5-min Rain = 0
KPG1 180849Z 11002KT 17/10 A2988 RMK A01 T01720102  RH  063%=      5-min Rain = 0
KPG1 180850Z 14001KT 17/10 A2988 RMK A01 T01710102  RH  064%=      5-min Rain = 0
KPG1 180851Z 12001KT 17/10 A2988 RMK A01 T01710103  RH  064%=      5-min Rain = 0
KPG1 180852Z 10001KT 17/10 A2988 RMK A01 T01710103  RH  064%=      5-min Rain = 0
KPG1 180853Z 00000KT 17/10 A2988 RMK A01 T01710103  RH  064%=      5-min Rain = 0
KPG1 180854Z 15000KT 17/10 A2988 RMK A01 T01710103  RH  064%=      5-min Rain = 0
KPG1 180855Z 19001KT 17/10 A2988 RMK A01 T01710103  RH  064%=      5-min Rain = 0
KPG1 180856Z 25000KT 17/10 A2988 RMK A01 T01710103  RH  064%=      5-min Rain = 0
KPG1 180857Z 00000KT 17/10 A2988 RMK A01 T01710103  RH  064%=      5-min Rain = 0
KPG1 180858Z 25000KT 17/10 A2988 RMK A01 T01710103  RH  064%=      5-min Rain = 0
KPG1 180859Z 25000KT 17/10 A2988 RMK A01 T01710103  RH  064%=      5-min Rain = 0
KPG1 180900Z 00000KT 17/10 A2988 RMK A01 T01710102  RH  064%=      5-min Rain = 0
KPG1 180901Z 14000KT 17/10 A2988 RMK A01 T01710102  RH  064%=      5-min Rain = 0
KPG1 180902Z 11001KT 17/10 A2988 RMK A01 T01710102  RH  064%=      5-min Rain = 0
KPG1 180903Z 08002KT 17/10 A2988 RMK A01 T01700102  RH  064%=      5-min Rain = 0
KPG1 180904Z 07001KT 17/10 A2988 RMK A01 T01700102  RH  064%=      5-min Rain = 0
KPG1 180905Z 07002KT 17/10 A2988 RMK A01 T01690102  RH  065%=      5-min Rain = 0
KPG1 180906Z 06004KT 17/10 A2988 RMK A01 T01690103  RH  065%=      5-min Rain = 0
KPG1 180907Z 08007KT 17/10 A2988 RMK A01 T01690104  RH  066%=      5-min Rain = 0
KPG1 180908Z 08007KT 17/11 A2988 RMK A01 T01710106  RH  066%=      5-min Rain = 0
KPG1 180909Z 09006KT 17/11 A2988 RMK A01 T01720106  RH  065%=      5-min Rain = 0
KPG1 180910Z 10005KT 17/11 A2988 RMK A01 T01740106  RH  064%=      5-min Rain = 0
KPG1 180911Z 09004KT 17/11 A2988 RMK A01 T01740105  RH  064%=      5-min Rain = 0
KPG1 180912Z 08006KT 17/11 A2988 RMK A01 T01740105  RH  064%=      5-min Rain = 0
KPG1 180913Z 08007KT 17/11 A2988 RMK A01 T01740106  RH  064%=      5-min Rain = 0
KPG1 180914Z 08006KT 17/11 A2988 RMK A01 T01740106  RH  064%=      5-min Rain = 0
KPG1 180915Z 07004KT 17/11 A2988 RMK A01 T01740106  RH  064%=      5-min Rain = 0
KPG1 180916Z 07006KT 17/11 A2988 RMK A01 T01740106  RH  064%=      5-min Rain = 0
KPG1 180917Z 07007KT 17/11 A2988 RMK A01 T01740106  RH  064%=      5-min Rain = 0
KPG1 180918Z 08008KT 17/11 A2988 RMK A01 T01730106  RH  064%=      5-min Rain = 0
KPG1 180919Z 08009KT 17/11 A2988 RMK A01 T01740106  RH  064%=      5-min Rain = 0
KPG1 180920Z 07008KT 18/11 A2988 RMK A01 T01750107  RH  064%=      5-min Rain = 0
KPG1 180921Z 07009KT 18/11 A2988 RMK A01 T01770107  RH  064%=      5-min Rain = 0
KPG1 180922Z 08007KT 18/11 A2988 RMK A01 T01770106  RH  063%=      5-min Rain = 0
KPG1 180923Z 08009KT 18/11 A2987 RMK A01 T01770107  RH  063%=      5-min Rain = 0
KPG1 180924Z 07010KT 18/11 A2987 RMK A01 T01770107  RH  063%=      5-min Rain = 0
KPG1 180925Z 07009KT 18/11 A2987 RMK A01 T01770106  RH  063%=      5-min Rain = 0
KPG1 180926Z 07008KT 18/11 A2987 RMK A01 T01770106  RH  063%=      5-min Rain = 0
KPG1 180927Z 07010KT 18/11 A2987 RMK A01 T01770106  RH  063%=      5-min Rain = 0
KPG1 180928Z 07009KT 18/11 A2987 RMK A01 T01770107  RH  063%=      5-min Rain = 0
KPG1 180929Z 07009KT 18/11 A2987 RMK A01 T01760106  RH  063%=      5-min Rain = 0
KPG1 180930Z 07008KT 18/11 A2987 RMK A01 T01750106  RH  064%=      5-min Rain = 0
KPG1 180931Z 07009KT 17/11 A2987 RMK A01 T01740105  RH  064%=      5-min Rain = 0
KPG1 180932Z 07009KT 17/11 A2987 RMK A01 T01730106  RH  064%=      5-min Rain = 0
KPG1 180933Z 07010KT 17/11 A2988 RMK A01 T01730106  RH  065%=      5-min Rain = 0
KPG1 180934Z 07011KT 17/11 A2988 RMK A01 T01740106  RH  064%=      5-min Rain = 0
KPG1 180935Z 07010KT 18/11 A2988 RMK A01 T01750106  RH  064%=      5-min Rain = 0
KPG1 180936Z 07009KT 17/11 A2988 RMK A01 T01740106  RH  064%=      5-min Rain = 0
KPG1 180937Z 06011KT 17/11 A2988 RMK A01 T01740106  RH  064%=      5-min Rain = 0
KPG1 180938Z 06010KT 17/11 A2988 RMK A01 T01730106  RH  064%=      5-min Rain = 0
KPG1 180939Z 06009KT 17/11 A2988 RMK A01 T01740106  RH  064%=      5-min Rain = 0
KPG1 180940Z 05008KT 17/11 A2988 RMK A01 T01730105  RH  064%=      5-min Rain = 0
KPG1 180941Z 04009KT 17/11 A2988 RMK A01 T01720105  RH  065%=      5-min Rain = 0
KPG1 180942Z 04010KT 17/11 A2988 RMK A01 T01710105  RH  065%=      5-min Rain = 0
KPG1 180943Z 03010KT 17/11 A2988 RMK A01 T01710105  RH  065%=      5-min Rain = 0
KPG1 180944Z 03009KT 17/10 A2988 RMK A01 T01700104  RH  065%=      5-min Rain = 0
KPG1 180945Z 02008KT 17/10 A2988 RMK A01 T01680103  RH  065%=      5-min Rain = 0
KPG1 180946Z 02009KT 17/10 A2988 RMK A01 T01650102  RH  066%=      5-min Rain = 0
KPG1 180947Z 01008KT 17/10 A2988 RMK A01 T01650103  RH  067%=      5-min Rain = 0
KPG1 180948Z 01009KT 16/10 A2988 RMK A01 T01640103  RH  067%=      5-min Rain = 0
KPG1 180949Z 02009KT 16/10 A2988 RMK A01 T01640103  RH  067%=      5-min Rain = 0
KPG1 180950Z 02008KT 16/10 A2988 RMK A01 T01630103  RH  068%=      5-min Rain = 0
KPG1 180951Z 02008KT 16/10 A2988 RMK A01 T01630103  RH  068%=      5-min Rain = 0
KPG1 180952Z 02009KT 16/10 A2988 RMK A01 T01630104  RH  068%=      5-min Rain = 0
KPG1 180953Z 03008KT 16/10 A2988 RMK A01 T01630104  RH  068%=      5-min Rain = 0
KPG1 180954Z 03009KT 16/10 A2988 RMK A01 T01640104  RH  068%=      5-min Rain = 0
KPG1 180955Z 03009KT 16/10 A2988 RMK A01 T01640104  RH  068%=      5-min Rain = 0
KPG1 180956Z 03008KT 16/10 A2988 RMK A01 T01640104  RH  068%=      5-min Rain = 0
KPG1 180957Z 03008KT 16/10 A2988 RMK A01 T01630104  RH  068%=      5-min Rain = 0
KPG1 180958Z 03009KT 16/10 A2988 RMK A01 T01630104  RH  068%=      5-min Rain = 0
KPG1 180959Z 04009KT 16/10 A2988 RMK A01 T01630104  RH  068%=      5-min Rain = 0
KPG1 181000Z 04009KT 16/10 A2988 RMK A01 T01630104  RH  068%=      5-min Rain = 0
KPG1 181001Z 04008KT 16/10 A2988 RMK A01 T01630104  RH  068%=      5-min Rain = 0
KPG1 181002Z 04008KT 16/11 A2988 RMK A01 T01640105  RH  068%=      5-min Rain = 0
KPG1 181003Z 03007KT 16/11 A2988 RMK A01 T01640105  RH  068%=      5-min Rain = 0
KPG1 181004Z 04007KT 16/11 A2988 RMK A01 T01640105  RH  068%=      5-min Rain = 0
KPG1 181005Z 04008KT 16/11 A2988 RMK A01 T01640105  RH  068%=      5-min Rain = 0
KPG1 181006Z 04008KT 16/11 A2988 RMK A01 T01640105  RH  068%=      5-min Rain = 0
KPG1 181007Z 03008KT 17/11 A2988 RMK A01 T01650105  RH  068%=      5-min Rain = 0
KPG1 181008Z 03008KT 17/11 A2988 RMK A01 T01650105  RH  068%=      5-min Rain = 0
KPG1 181009Z 03008KT 17/11 A2988 RMK A01 T01650105  RH  068%=      5-min Rain = 0
KPG1 181010Z 04007KT 17/11 A2988 RMK A01 T01650105  RH  068%=      5-min Rain = 0
KPG1 181011Z 04008KT 17/11 A2988 RMK A01 T01650105  RH  068%=      5-min Rain = 0
KPG1 181012Z 04007KT 17/11 A2988 RMK A01 T01650105  RH  068%=      5-min Rain = 0
KPG1 181013Z 04007KT 17/11 A2988 RMK A01 T01650105  RH  068%=      5-min Rain = 0
KPG1 181014Z 04006KT 17/11 A2988 RMK A01 T01650105  RH  068%=      5-min Rain = 0
KPG1 181015Z 04006KT 17/11 A2988 RMK A01 T01650105  RH  068%=      5-min Rain = 0
KPG1 181016Z 04007KT 17/11 A2988 RMK A01 T01650105  RH  068%=      5-min Rain = 0
KPG1 181017Z 04007KT 17/11 A2988 RMK A01 T01650105  RH  068%=      5-min Rain = 0
KPG1 181018Z 05006KT 17/11 A2988 RMK A01 T01650105  RH  068%=      5-min Rain = 0
KPG1 181019Z 05006KT 17/11 A2988 RMK A01 T01650105  RH  068%=      5-min Rain = 0
KPG1 181020Z 05007KT 17/11 A2988 RMK A01 T01650105  RH  068%=      5-min Rain = 0
KPG1 181021Z 05007KT 17/11 A2988 RMK A01 T01650105  RH  067%=      5-min Rain = 0
KPG1 181022Z 05007KT 17/11 A2988 RMK A01 T01660105  RH  067%=      5-min Rain = 0
KPG1 181023Z 06007KT 17/11 A2988 RMK A01 T01660105  RH  067%=      5-min Rain = 0
KPG1 181024Z 06007KT 17/11 A2988 RMK A01 T01660105  RH  067%=      5-min Rain = 0
KPG1 181025Z 07007KT 17/11 A2988 RMK A01 T01660106  RH  067%=      5-min Rain = 0
KPG1 181026Z 07008KT 17/11 A2988 RMK A01 T01670106  RH  067%=      5-min Rain = 0
KPG1 181027Z 06008KT 17/11 A2988 RMK A01 T01670106  RH  067%=      5-min Rain = 0
KPG1 181028Z 06008KT 17/11 A2987 RMK A01 T01670106  RH  067%=      5-min Rain = 0
KPG1 181029Z 06008KT 17/11 A2987 RMK A01 T01680106  RH  067%=      5-min Rain = 0
KPG1 181030Z 06007KT 17/11 A2987 RMK A01 T01680106  RH  067%=      5-min Rain = 0
KPG1 181031Z 06006KT 17/11 A2987 RMK A01 T01680106  RH  067%=      5-min Rain = 0
KPG1 181032Z 05007KT 17/11 A2987 RMK A01 T01670105  RH  067%=      5-min Rain = 0
KPG1 181033Z 04008KT 17/11 A2988 RMK A01 T01660105  RH  067%=      5-min Rain = 0
KPG1 181034Z 05008KT 17/11 A2988 RMK A01 T01660105  RH  067%=      5-min Rain = 0
KPG1 181035Z 05007KT 17/11 A2988 RMK A01 T01650105  RH  068%=      5-min Rain = 0
KPG1 181036Z 06008KT 17/11 A2988 RMK A01 T01650105  RH  068%=      5-min Rain = 0
KPG1 181037Z 06008KT 17/11 A2988 RMK A01 T01650105  RH  068%=      5-min Rain = 0
KPG1 181038Z 05007KT 17/11 A2988 RMK A01 T01650105  RH  068%=      5-min Rain = 0
KPG1 181039Z 05008KT 17/11 A2988 RMK A01 T01650105  RH  068%=      5-min Rain = 0
KPG1 181040Z 06008KT 17/11 A2988 RMK A01 T01650106  RH  068%=      5-min Rain = 0
KPG1 181041Z 06007KT 17/11 A2988 RMK A01 T01650106  RH  068%=      5-min Rain = 0
KPG1 181042Z 07006KT 17/11 A2988 RMK A01 T01650105  RH  068%=      5-min Rain = 0
KPG1 181043Z 06007KT 17/11 A2988 RMK A01 T01650105  RH  068%=      5-min Rain = 0
KPG1 181044Z 07007KT 17/11 A2988 RMK A01 T01650105  RH  068%=      5-min Rain = 0
KPG1 181045Z 06006KT 17/11 A2988 RMK A01 T01660106  RH  068%=      5-min Rain = 0
KPG1 181046Z 02005KT 17/11 A2988 RMK A01 T01660106  RH  067%=      5-min Rain = 0
KPG1 181047Z 01007KT 17/11 A2988 RMK A01 T01650105  RH  067%=      5-min Rain = 0
KPG1 181048Z 00007KT 16/11 A2988 RMK A01 T01640105  RH  068%=      5-min Rain = 0
KPG1 181049Z 01007KT 16/11 A2988 RMK A01 T01630105  RH  068%=      5-min Rain = 0
KPG1 181050Z 00007KT 16/11 A2988 RMK A01 T01630105  RH  068%=      5-min Rain = 0
KPG1 181051Z 36007KT 16/11 A2988 RMK A01 T01630105  RH  068%=      5-min Rain = 0
KPG1 181052Z 36007KT 16/11 A2988 RMK A01 T01620105  RH  069%=      5-min Rain = 0
KPG1 181053Z 36007KT 16/11 A2988 RMK A01 T01620105  RH  069%=      5-min Rain = 0
KPG1 181054Z 01006KT 16/10 A2988 RMK A01 T01610104  RH  069%=      5-min Rain = 0
KPG1 181055Z 00006KT 16/11 A2988 RMK A01 T01610105  RH  069%=      5-min Rain = 0
KPG1 181056Z 36006KT 16/11 A2988 RMK A01 T01610105  RH  069%=      5-min Rain = 0
KPG1 181057Z 36005KT 16/11 A2988 RMK A01 T01610105  RH  069%=      5-min Rain = 0
KPG1 181058Z 00005KT 16/11 A2988 RMK A01 T01610105  RH  069%=      5-min Rain = 0
KPG1 181059Z 00005KT 16/11 A2988 RMK A01 T01610105  RH  069%=      5-min Rain = 0
KPG1 181100Z 00004KT 16/11 A2988 RMK A01 T01610105  RH  069%=      5-min Rain = 0
KPG1 181101Z 02004KT 16/11 A2988 RMK A01 T01610105  RH  069%=      5-min Rain = 0
KPG1 181102Z 03004KT 16/10 A2988 RMK A01 T01610104  RH  069%=      5-min Rain = 0
KPG1 181103Z 02003KT 16/10 A2988 RMK A01 T01600104  RH  069%=      5-min Rain = 0
KPG1 181104Z 02002KT 16/11 A2988 RMK A01 T01620105  RH  069%=      5-min Rain = 0
KPG1 181105Z 02003KT 16/11 A2988 RMK A01 T01620105  RH  069%=      5-min Rain = 0
KPG1 181106Z 02003KT 16/11 A2988 RMK A01 T01620105  RH  069%=      5-min Rain = 0
KPG1 181107Z 04003KT 16/10 A2988 RMK A01 T01610104  RH  069%=      5-min Rain = 0
KPG1 181108Z 03002KT 16/10 A2988 RMK A01 T01590103  RH  069%=      5-min Rain = 0
KPG1 181109Z 03002KT 16/10 A2988 RMK A01 T01580103  RH  070%=      5-min Rain = 0
KPG1 181110Z 04002KT 16/10 A2988 RMK A01 T01580103  RH  070%=      5-min Rain = 0
KPG1 181111Z 05002KT 16/10 A2988 RMK A01 T01570103  RH  070%=      5-min Rain = 0
KPG1 181112Z 05001KT 16/10 A2988 RMK A01 T01570102  RH  070%=      5-min Rain = 0
KPG1 181113Z 05001KT 16/10 A2988 RMK A01 T01560102  RH  070%=      5-min Rain = 0
KPG1 181114Z 05000KT 16/10 A2988 RMK A01 T01560102  RH  070%=      5-min Rain = 0
KPG1 181115Z 05001KT 16/10 A2988 RMK A01 T01550101  RH  070%=      5-min Rain = 0
KPG1 181116Z 06001KT 15/10 A2988 RMK A01 T01540101  RH  070%=      5-min Rain = 0
KPG1 181117Z 07001KT 15/10 A2988 RMK A01 T01540101  RH  071%=      5-min Rain = 0
KPG1 181118Z 08001KT 15/10 A2988 RMK A01 T01530101  RH  071%=      5-min Rain = 0
KPG1 181119Z 08001KT 15/10 A2988 RMK A01 T01530101  RH  071%=      5-min Rain = 0
KPG1 181120Z 09001KT 15/10 A2988 RMK A01 T01530101  RH  071%=      5-min Rain = 0
KPG1 181121Z 11001KT 15/10 A2988 RMK A01 T01530101  RH  071%=      5-min Rain = 0
KPG1 181122Z 11001KT 15/10 A2988 RMK A01 T01520101  RH  071%=      5-min Rain = 0
KPG1 181123Z 09000KT 15/10 A2988 RMK A01 T01520101  RH  071%=      5-min Rain = 0
KPG1 181124Z 00000KT 15/10 A2988 RMK A01 T01530101  RH  071%=      5-min Rain = 0
KPG1 181125Z 01000KT 15/10 A2988 RMK A01 T01530101  RH  071%=      5-min Rain = 0
KPG1 181126Z 01000KT 15/10 A2988 RMK A01 T01520100  RH  071%=      5-min Rain = 0
KPG1 181127Z 02001KT 15/10 A2988 RMK A01 T01510100  RH  072%=      5-min Rain = 0
KPG1 181128Z 03001KT 15/10 A2988 RMK A01 T01510101  RH  072%=      5-min Rain = 0
KPG1 181129Z 03000KT 15/10 A2988 RMK A01 T01510101  RH  072%=      5-min Rain = 0
KPG1 181130Z 00000KT 15/10 A2988 RMK A01 T01510101  RH  072%=      5-min Rain = 0
KPG1 181131Z 00000KT 15/10 A2988 RMK A01 T01500101  RH  072%=      5-min Rain = 0
KPG1 181132Z 00000KT 15/10 A2988 RMK A01 T01510102  RH  072%=      5-min Rain = 0
KPG1 181133Z 00000KT 15/10 A2988 RMK A01 T01530103  RH  072%=      5-min Rain = 0
KPG1 181134Z 00000KT 15/10 A2988 RMK A01 T01540103  RH  072%=      5-min Rain = 0
KPG1 181135Z 00000KT 15/10 A2988 RMK A01 T01540102  RH  071%=      5-min Rain = 0
KPG1 181136Z 00000KT 15/10 A2988 RMK A01 T01530103  RH  072%=      5-min Rain = 0
KPG1 181137Z 00000KT 15/10 A2988 RMK A01 T01530102  RH  072%=      5-min Rain = 0
KPG1 181138Z 03000KT 15/10 A2988 RMK A01 T01530101  RH  071%=      5-min Rain = 0
KPG1 181139Z 03000KT 15/10 A2988 RMK A01 T01510099  RH  071%=      5-min Rain = 0
KPG1 181140Z 00000KT 15/10 A2988 RMK A01 T01490098  RH  072%=      5-min Rain = 0
KPG1 181141Z 00000KT 15/10 A2988 RMK A01 T01480100  RH  073%=      5-min Rain = 0
KPG1 181142Z 00000KT 15/10 A2988 RMK A01 T01490100  RH  073%=      5-min Rain = 0
KPG1 181143Z 00000KT 15/10 A2988 RMK A01 T01480100  RH  073%=      5-min Rain = 0
KPG1 181144Z 00000KT 15/10 A2988 RMK A01 T01480100  RH  073%=      5-min Rain = 0
KPG1 181145Z 03001KT 15/10 A2988 RMK A01 T01490099  RH  072%=      5-min Rain = 0
KPG1 181146Z 03003KT 15/10 A2988 RMK A01 T01470097  RH  072%=      5-min Rain = 0
KPG1 181147Z 03003KT 15/10 A2988 RMK A01 T01460098  RH  073%=      5-min Rain = 0
KPG1 181148Z 03002KT 15/10 A2988 RMK A01 T01450098  RH  074%=      5-min Rain = 0
KPG1 181149Z 04001KT 15/10 A2988 RMK A01 T01450099  RH  074%=      5-min Rain = 0
KPG1 181150Z 05001KT 15/10 A2988 RMK A01 T01450099  RH  074%=      5-min Rain = 0
KPG1 181151Z 07001KT 15/10 A2988 RMK A01 T01450099  RH  074%=      5-min Rain = 0
KPG1 181152Z 08001KT 15/10 A2988 RMK A01 T01450100  RH  074%=      5-min Rain = 0
KPG1 181153Z 09001KT 15/10 A2988 RMK A01 T01460100  RH  074%=      5-min Rain = 0
KPG1 181154Z 11001KT 15/10 A2988 RMK A01 T01460100  RH  074%=      5-min Rain = 0
KPG1 181155Z 11002KT 15/10 A2988 RMK A01 T01460099  RH  074%=      5-min Rain = 0
KPG1 181156Z 08001KT 15/10 A2988 RMK A01 T01460100  RH  074%=      5-min Rain = 0
KPG1 181157Z 04001KT 15/10 A2988 RMK A01 T01450099  RH  074%=      5-min Rain = 0
KPG1 181158Z 03001KT 14/10 A2988 RMK A01 T01440099  RH  074%=      5-min Rain = 0
KPG1 181159Z 05002KT 14/10 A2988 RMK A01 T01440098  RH  074%=      5-min Rain = 0
KPG1 181200Z 04003KT 14/10 A2988 RMK A01 T01430098  RH  075%=      5-min Rain = 0
KPG1 181201Z 04003KT 14/10 A2988 RMK A01 T01430099  RH  075%=      5-min Rain = 0
KPG1 181202Z 02002KT 14/10 A2988 RMK A01 T01430099  RH  075%=      5-min Rain = 0
KPG1 181203Z 02002KT 14/10 A2988 RMK A01 T01430100  RH  075%=      5-min Rain = 0
KPG1 181204Z 01002KT 14/10 A2988 RMK A01 T01430100  RH  075%=      5-min Rain = 0
KPG1 181205Z 00002KT 14/10 A2988 RMK A01 T01440101  RH  075%=      5-min Rain = 0
KPG1 181206Z 36002KT 15/10 A2988 RMK A01 T01450102  RH  075%=      5-min Rain = 0
KPG1 181207Z 00002KT 15/10 A2988 RMK A01 T01470103  RH  075%=      5-min Rain = 0
KPG1 181208Z 00002KT 15/10 A2988 RMK A01 T01480101  RH  074%=      5-min Rain = 0
KPG1 181209Z 01003KT 15/10 A2988 RMK A01 T01470102  RH  074%=      5-min Rain = 0
KPG1 181210Z 02003KT 15/10 A2988 RMK A01 T01470101  RH  074%=      5-min Rain = 0
KPG1 181211Z 02003KT 15/10 A2988 RMK A01 T01450097  RH  073%=      5-min Rain = 0
KPG1 181212Z 03003KT 14/10 A2988 RMK A01 T01420098  RH  075%=      5-min Rain = 0
KPG1 181213Z 02002KT 14/10 A2988 RMK A01 T01420099  RH  076%=      5-min Rain = 0
KPG1 181214Z 02002KT 14/10 A2988 RMK A01 T01410101  RH  076%=      5-min Rain = 0
KPG1 181215Z 00003KT 14/10 A2988 RMK A01 T01420100  RH  076%=      5-min Rain = 0
KPG1 181216Z 36003KT 14/10 A2988 RMK A01 T01420101  RH  076%=      5-min Rain = 0
KPG1 181217Z 00002KT 14/10 A2988 RMK A01 T01430101  RH  076%=      5-min Rain = 0
KPG1 181218Z 00002KT 14/10 A2988 RMK A01 T01430101  RH  076%=      5-min Rain = 0
KPG1 181219Z 02002KT 14/10 A2988 RMK A01 T01420101  RH  076%=      5-min Rain = 0
KPG1 181220Z 03002KT 14/10 A2988 RMK A01 T01420101  RH  076%=      5-min Rain = 0
KPG1 181221Z 03002KT 14/10 A2988 RMK A01 T01420101  RH  076%=      5-min Rain = 0
KPG1 181222Z 03002KT 14/10 A2988 RMK A01 T01410101  RH  077%=      5-min Rain = 0
KPG1 181223Z 03002KT 14/10 A2988 RMK A01 T01410102  RH  077%=      5-min Rain = 0
KPG1 181224Z 04003KT 14/10 A2988 RMK A01 T01420102  RH  077%=      5-min Rain = 0
KPG1 181225Z 04004KT 14/10 A2988 RMK A01 T01420102  RH  077%=      5-min Rain = 0
KPG1 181226Z 03003KT 14/10 A2988 RMK A01 T01410102  RH  077%=      5-min Rain = 0
KPG1 181227Z 01003KT 14/10 A2988 RMK A01 T01410102  RH  077%=      5-min Rain = 0
KPG1 181228Z 00003KT 14/10 A2988 RMK A01 T01420102  RH  077%=      5-min Rain = 0
KPG1 181229Z 36005KT 14/10 A2988 RMK A01 T01430103  RH  077%=      5-min Rain = 0
KPG1 181230Z 01003KT 14/10 A2988 RMK A01 T01440103  RH  077%=      5-min Rain = 0
KPG1 181231Z 04002KT 15/10 A2988 RMK A01 T01450104  RH  076%=      5-min Rain = 0
KPG1 181232Z 04002KT 15/10 A2988 RMK A01 T01450103  RH  076%=      5-min Rain = 0
KPG1 181233Z 04002KT 15/10 A2988 RMK A01 T01450103  RH  076%=      5-min Rain = 0
KPG1 181234Z 04003KT 15/10 A2988 RMK A01 T01450104  RH  076%=      5-min Rain = 0
KPG1 181235Z 02003KT 15/10 A2988 RMK A01 T01460104  RH  076%=      5-min Rain = 0
KPG1 181236Z 02003KT 15/10 A2988 RMK A01 T01460104  RH  076%=      5-min Rain = 0
KPG1 181237Z 01003KT 15/10 A2988 RMK A01 T01450103  RH  076%=      5-min Rain = 0
KPG1 181238Z 03003KT 15/10 A2988 RMK A01 T01450104  RH  076%=      5-min Rain = 0
KPG1 181239Z 03003KT 15/10 A2988 RMK A01 T01450103  RH  076%=      5-min Rain = 0
KPG1 181240Z 02003KT 15/10 A2988 RMK A01 T01450103  RH  076%=      5-min Rain = 0
KPG1 181241Z 00003KT 15/10 A2988 RMK A01 T01450103  RH  076%=      5-min Rain = 0
KPG1 181242Z 01003KT 15/10 A2988 RMK A01 T01450103  RH  076%=      5-min Rain = 0
KPG1 181243Z 00002KT 15/11 A2988 RMK A01 T01460106  RH  077%=      5-min Rain = 0
KPG1 181244Z 02002KT 15/11 A2988 RMK A01 T01490106  RH  075%=      5-min Rain = 0
KPG1 181245Z 03002KT 15/10 A2988 RMK A01 T01500104  RH  074%=      5-min Rain = 0
KPG1 181246Z 07002KT 15/11 A2988 RMK A01 T01490105  RH  075%=      5-min Rain = 0
KPG1 181247Z 06002KT 15/10 A2988 RMK A01 T01490104  RH  074%=      5-min Rain = 0
KPG1 181248Z 06002KT 15/10 A2988 RMK A01 T01470102  RH  074%=      5-min Rain = 0
KPG1 181249Z 04002KT 15/10 A2987 RMK A01 T01450101  RH  075%=      5-min Rain = 0
KPG1 181250Z 04002KT 14/10 A2988 RMK A01 T01440101  RH  076%=      5-min Rain = 0
KPG1 181251Z 04002KT 14/10 A2988 RMK A01 T01430102  RH  076%=      5-min Rain = 0
KPG1 181252Z 04003KT 14/10 A2988 RMK A01 T01420101  RH  076%=      5-min Rain = 0
KPG1 181253Z 03003KT 14/10 A2988 RMK A01 T01410100  RH  077%=      5-min Rain = 0
KPG1 181254Z 04003KT 14/10 A2988 RMK A01 T01400101  RH  077%=      5-min Rain = 0
KPG1 181255Z 04003KT 14/10 A2988 RMK A01 T01400102  RH  078%=      5-min Rain = 0
KPG1 181256Z 04003KT 14/10 A2988 RMK A01 T01400102  RH  078%=      5-min Rain = 0
KPG1 181257Z 03003KT 14/10 A2988 RMK A01 T01400102  RH  078%=      5-min Rain = 0
KPG1 181258Z 03004KT 14/10 A2988 RMK A01 T01410102  RH  078%=      5-min Rain = 0
KPG1 181259Z 03003KT 14/10 A2988 RMK A01 T01410102  RH  078%=      5-min Rain = 0
KPG1 181300Z 02003KT 14/10 A2988 RMK A01 T01420104  RH  078%=      5-min Rain = 0
KPG1 181301Z 02004KT 14/10 A2988 RMK A01 T01430103  RH  077%=      5-min Rain = 0
KPG1 181302Z 03004KT 14/10 A2988 RMK A01 T01430103  RH  076%=      5-min Rain = 0
KPG1 181303Z 03004KT 14/10 A2988 RMK A01 T01430102  RH  076%=      5-min Rain = 0
KPG1 181304Z 03003KT 14/10 A2988 RMK A01 T01420102  RH  077%=      5-min Rain = 0
KPG1 181305Z 01003KT 14/11 A2988 RMK A01 T01430105  RH  078%=      5-min Rain = 0
KPG1 181306Z 02002KT 15/11 A2988 RMK A01 T01450105  RH  077%=      5-min Rain = 0
KPG1 181307Z 01003KT 15/10 A2988 RMK A01 T01450104  RH  076%=      5-min Rain = 0
KPG1 181308Z 01005KT 15/10 A2988 RMK A01 T01460104  RH  076%=      5-min Rain = 0
KPG1 181309Z 02005KT 15/10 A2988 RMK A01 T01450103  RH  076%=      5-min Rain = 0
KPG1 181310Z 02005KT 15/10 A2988 RMK A01 T01450103  RH  076%=      5-min Rain = 0
KPG1 181311Z 02005KT 14/10 A2988 RMK A01 T01440103  RH  076%=      5-min Rain = 0
KPG1 181312Z 02005KT 14/10 A2988 RMK A01 T01440104  RH  077%=      5-min Rain = 0
KPG1 181313Z 02005KT 14/10 A2988 RMK A01 T01440104  RH  077%=      5-min Rain = 0
KPG1 181314Z 02006KT 14/10 A2988 RMK A01 T01440104  RH  077%=      5-min Rain = 0
KPG1 181315Z 01005KT 14/10 A2988 RMK A01 T01440104  RH  077%=      5-min Rain = 0
KPG1 181316Z 02005KT 15/10 A2988 RMK A01 T01450104  RH  077%=      5-min Rain = 0
KPG1 181317Z 02005KT 15/10 A2988 RMK A01 T01450104  RH  076%=      5-min Rain = 0
KPG1 181318Z 02004KT 15/10 A2988 RMK A01 T01460104  RH  076%=      5-min Rain = 0
KPG1 181319Z 02004KT 15/10 A2988 RMK A01 T01460104  RH  076%=      5-min Rain = 0
KPG1 181320Z 01004KT 15/10 A2988 RMK A01 T01460104  RH  076%=      5-min Rain = 0
KPG1 181321Z 00004KT 15/10 A2988 RMK A01 T01450104  RH  076%=      5-min Rain = 0
KPG1 181322Z 00004KT 15/10 A2988 RMK A01 T01460104  RH  076%=      5-min Rain = 0
KPG1 181323Z 35004KT 15/10 A2988 RMK A01 T01460104  RH  076%=      5-min Rain = 0
KPG1 181324Z 35004KT 15/11 A2988 RMK A01 T01470105  RH  076%=      5-min Rain = 0
KPG1 181325Z 35003KT 15/11 A2988 RMK A01 T01480105  RH  076%=      5-min Rain = 0
KPG1 181326Z 34003KT 15/11 A2988 RMK A01 T01470105  RH  075%=      5-min Rain = 0
KPG1 181327Z 34002KT 15/10 A2988 RMK A01 T01470104  RH  075%=      5-min Rain = 0
KPG1 181328Z 00001KT 15/10 A2988 RMK A01 T01470104  RH  076%=      5-min Rain = 0
KPG1 181329Z 03002KT 15/10 A2988 RMK A01 T01460104  RH  076%=      5-min Rain = 0
KPG1 181330Z 03002KT 15/10 A2988 RMK A01 T01460104  RH  076%=      5-min Rain = 0
KPG1 181331Z 01001KT 15/11 A2988 RMK A01 T01460105  RH  076%=      5-min Rain = 0
KPG1 181332Z 01001KT 15/10 A2988 RMK A01 T01460104  RH  076%=      5-min Rain = 0
KPG1 181333Z 32001KT 15/10 A2988 RMK A01 T01470104  RH  076%=      5-min Rain = 0
KPG1 181334Z 30000KT 15/11 A2988 RMK A01 T01470105  RH  076%=      5-min Rain = 0
KPG1 181335Z 32000KT 15/10 A2988 RMK A01 T01470104  RH  075%=      5-min Rain = 0
KPG1 181336Z 00000KT 15/11 A2988 RMK A01 T01480105  RH  075%=      5-min Rain = 0
KPG1 181337Z 30000KT 15/10 A2988 RMK A01 T01480104  RH  075%=      5-min Rain = 0
KPG1 181338Z 29000KT 15/11 A2988 RMK A01 T01480105  RH  075%=      5-min Rain = 0
KPG1 181339Z 24000KT 15/10 A2988 RMK A01 T01480104  RH  075%=      5-min Rain = 0
KPG1 181340Z 30000KT 15/10 A2988 RMK A01 T01480104  RH  075%=      5-min Rain = 0
KPG1 181341Z 23000KT 15/10 A2988 RMK A01 T01480104  RH  075%=      5-min Rain = 0
KPG1 181342Z 24000KT 15/10 A2988 RMK A01 T01480104  RH  075%=      5-min Rain = 0
KPG1 181343Z 00000KT 15/10 A2988 RMK A01 T01480104  RH  075%=      5-min Rain = 0
KPG1 181344Z 24000KT 15/10 A2988 RMK A01 T01480104  RH  075%=      5-min Rain = 0
KPG1 181345Z 24001KT 15/10 A2988 RMK A01 T01490104  RH  075%=      5-min Rain = 0
KPG1 181346Z 24000KT 15/10 A2988 RMK A01 T01490104  RH  075%=      5-min Rain = 0
KPG1 181347Z 24000KT 15/10 A2988 RMK A01 T01490104  RH  074%=      5-min Rain = 0
KPG1 181348Z 21000KT 15/10 A2988 RMK A01 T01490104  RH  074%=      5-min Rain = 0
KPG1 181349Z 17001KT 15/10 A2988 RMK A01 T01500104  RH  074%=      5-min Rain = 0
KPG1 181350Z 17001KT 15/11 A2988 RMK A01 T01510105  RH  074%=      5-min Rain = 0
KPG1 181351Z 17001KT 15/11 A2988 RMK A01 T01530106  RH  073%=      5-min Rain = 0
KPG1 181352Z 17002KT 16/11 A2988 RMK A01 T01560106  RH  072%=      5-min Rain = 0
KPG1 181353Z 17001KT 16/11 A2988 RMK A01 T01580107  RH  071%=      5-min Rain = 0
KPG1 181354Z 16001KT 16/11 A2988 RMK A01 T01610107  RH  070%=      5-min Rain = 0
KPG1 181355Z 16002KT 16/11 A2988 RMK A01 T01630107  RH  070%=      5-min Rain = 0
KPG1 181356Z 16003KT 16/11 A2988 RMK A01 T01640107  RH  069%=      5-min Rain = 0
KPG1 181357Z 17002KT 17/11 A2988 RMK A01 T01650106  RH  068%=      5-min Rain = 0
KPG1 181358Z 18001KT 17/11 A2988 RMK A01 T01660106  RH  067%=      5-min Rain = 0
KPG1 181359Z 18002KT 17/11 A2988 RMK A01 T01670106  RH  067%=      5-min Rain = 0
KPG1 181400Z 18002KT 17/11 A2988 RMK A01 T01690106  RH  066%=      5-min Rain = 0
KPG1 181401Z 18001KT 17/11 A2988 RMK A01 T01690106  RH  066%=      5-min Rain = 0
KPG1 181402Z 18001KT 17/11 A2988 RMK A01 T01700105  RH  066%=      5-min Rain = 0
KPG1 181403Z 21001KT 17/11 A2988 RMK A01 T01710105  RH  065%=      5-min Rain = 0
KPG1 181404Z 23002KT 17/11 A2988 RMK A01 T01710105  RH  065%=      5-min Rain = 0
KPG1 181405Z 19002KT 17/11 A2988 RMK A01 T01710105  RH  065%=      5-min Rain = 0
KPG1 181406Z 20002KT 17/11 A2988 RMK A01 T01710105  RH  065%=      5-min Rain = 0
KPG1 181407Z 19003KT 17/10 A2988 RMK A01 T01700104  RH  065%=      5-min Rain = 0
KPG1 181408Z 18003KT 17/10 A2988 RMK A01 T01690104  RH  065%=      5-min Rain = 0
KPG1 181409Z 17002KT 17/10 A2988 RMK A01 T01680104  RH  066%=      5-min Rain = 0
KPG1 181410Z 20003KT 17/10 A2988 RMK A01 T01700104  RH  065%=      5-min Rain = 0
KPG1 181411Z 17002KT 17/10 A2988 RMK A01 T01700104  RH  065%=      5-min Rain = 0
KPG1 181412Z 19002KT 17/11 A2988 RMK A01 T01710105  RH  065%=      5-min Rain = 0
KPG1 181413Z 19003KT 17/11 A2988 RMK A01 T01720105  RH  064%=      5-min Rain = 0
KPG1 181414Z 20002KT 17/11 A2988 RMK A01 T01730105  RH  064%=      5-min Rain = 0
KPG1 181415Z 20002KT 17/10 A2988 RMK A01 T01720104  RH  064%=      5-min Rain = 0
KPG1 181416Z 18001KT 17/10 A2988 RMK A01 T01710104  RH  065%=      5-min Rain = 0
KPG1 181417Z 19002KT 17/10 A2988 RMK A01 T01710104  RH  065%=      5-min Rain = 0
KPG1 181418Z 21003KT 17/10 A2988 RMK A01 T01730104  RH  064%=      5-min Rain = 0
KPG1 181419Z 19003KT 17/10 A2988 RMK A01 T01730104  RH  064%=      5-min Rain = 0
KPG1 181420Z 18004KT 17/10 A2988 RMK A01 T01720104  RH  064%=      5-min Rain = 0
KPG1 181421Z 19002KT 17/10 A2988 RMK A01 T01720104  RH  064%=      5-min Rain = 0
KPG1 181422Z 18003KT 17/10 A2988 RMK A01 T01730103  RH  064%=      5-min Rain = 0
KPG1 181423Z 19004KT 17/10 A2988 RMK A01 T01740104  RH  064%=      5-min Rain = 0
KPG1 181424Z 21003KT 18/10 A2988 RMK A01 T01750104  RH  063%=      5-min Rain = 0
KPG1 181425Z 22003KT 17/10 A2988 RMK A01 T01740104  RH  064%=      5-min Rain = 0
KPG1 181426Z 21004KT 17/10 A2988 RMK A01 T01730103  RH  064%=      5-min Rain = 0
KPG1 181427Z 22003KT 17/10 A2988 RMK A01 T01730104  RH  064%=      5-min Rain = 0
KPG1 181428Z 19002KT 17/10 A2988 RMK A01 T01720103  RH  064%=      5-min Rain = 0
KPG1 181429Z 18003KT 17/10 A2988 RMK A01 T01720103  RH  064%=      5-min Rain = 0
KPG1 181430Z 21003KT 17/10 A2988 RMK A01 T01740104  RH  063%=      5-min Rain = 0
KPG1 181431Z 20003KT 18/10 A2988 RMK A01 T01750103  RH  063%=      5-min Rain = 0
KPG1 181432Z 20004KT 18/10 A2988 RMK A01 T01750104  RH  063%=      5-min Rain = 0
KPG1 181433Z 19003KT 18/10 A2989 RMK A01 T01750104  RH  063%=      5-min Rain = 0
KPG1 181434Z 21003KT 17/10 A2989 RMK A01 T01740104  RH  063%=      5-min Rain = 0
KPG1 181435Z 21004KT 17/10 A2989 RMK A01 T01740104  RH  063%=      5-min Rain = 0
KPG1 181436Z 20003KT 18/10 A2989 RMK A01 T01750104  RH  063%=      5-min Rain = 0
KPG1 181437Z 20002KT 18/10 A2989 RMK A01 T01760104  RH  063%=      5-min Rain = 0
KPG1 181438Z 22003KT 18/10 A2989 RMK A01 T01770104  RH  062%=      5-min Rain = 0
KPG1 181439Z 22003KT 18/10 A2989 RMK A01 T01770104  RH  062%=      5-min Rain = 0
KPG1 181440Z 19003KT 18/10 A2988 RMK A01 T01770104  RH  062%=      5-min Rain = 0
KPG1 181441Z 17003KT 18/11 A2988 RMK A01 T01790105  RH  062%=      5-min Rain = 0
KPG1 181442Z 19003KT 18/11 A2988 RMK A01 T01810105  RH  061%=      5-min Rain = 0
KPG1 181443Z 16002KT 18/11 A2988 RMK A01 T01830105  RH  060%=      5-min Rain = 0
KPG1 181444Z 17004KT 18/10 A2988 RMK A01 T01840104  RH  060%=      5-min Rain = 0
KPG1 181445Z 17004KT 18/11 A2988 RMK A01 T01840105  RH  060%=      5-min Rain = 0
KPG1 181446Z 20003KT 18/11 A2988 RMK A01 T01840105  RH  060%=      5-min Rain = 0
KPG1 181447Z 25002KT 19/11 A2988 RMK A01 T01850105  RH  060%=      5-min Rain = 0
KPG1 181448Z 18003KT 19/11 A2988 RMK A01 T01850105  RH  060%=      5-min Rain = 0
KPG1 181449Z 16003KT 18/11 A2988 RMK A01 T01840105  RH  060%=      5-min Rain = 0
KPG1 181450Z 16004KT 19/11 A2988 RMK A01 T01850105  RH  059%=      5-min Rain = 0
KPG1 181451Z 18003KT 19/11 A2988 RMK A01 T01870106  RH  059%=      5-min Rain = 0
KPG1 181452Z 17004KT 19/11 A2988 RMK A01 T01890105  RH  058%=      5-min Rain = 0
KPG1 181453Z 17004KT 19/11 A2988 RMK A01 T01890105  RH  058%=      5-min Rain = 0
KPG1 181454Z 18003KT 19/11 A2988 RMK A01 T01890105  RH  058%=      5-min Rain = 0
KPG1 181455Z 17003KT 19/10 A2988 RMK A01 T01880104  RH  058%=      5-min Rain = 0
KPG1 181456Z 17003KT 19/10 A2988 RMK A01 T01870104  RH  059%=      5-min Rain = 0
KPG1 181457Z 17005KT 19/11 A2988 RMK A01 T01870105  RH  059%=      5-min Rain = 0
KPG1 181458Z 20005KT 19/11 A2988 RMK A01 T01890105  RH  058%=      5-min Rain = 0
KPG1 181459Z 19004KT 19/11 A2988 RMK A01 T01890105  RH  058%=      5-min Rain = 0
KPG1 181500Z 19003KT 19/11 A2988 RMK A01 T01880105  RH  058%=      5-min Rain = 0
KPG1 181501Z 20003KT 19/11 A2988 RMK A01 T01880105  RH  058%=      5-min Rain = 0
KPG1 181502Z 21003KT 19/11 A2988 RMK A01 T01880105  RH  058%=      5-min Rain = 0
KPG1 181503Z 21003KT 19/11 A2988 RMK A01 T01880105  RH  058%=      5-min Rain = 0
KPG1 181504Z 22002KT 19/11 A2988 RMK A01 T01880105  RH  058%=      5-min Rain = 0
KPG1 181505Z 17003KT 19/11 A2988 RMK A01 T01880105  RH  058%=      5-min Rain = 0
KPG1 181506Z 18004KT 19/11 A2988 RMK A01 T01910106  RH  058%=      5-min Rain = 0
KPG1 181507Z 18004KT 19/11 A2988 RMK A01 T01930106  RH  057%=      5-min Rain = 0
KPG1 181508Z 21003KT 19/11 A2988 RMK A01 T01940106  RH  057%=      5-min Rain = 0
KPG1 181509Z 23001KT 20/11 A2988 RMK A01 T01950106  RH  057%=      5-min Rain = 0
KPG1 181510Z 21001KT 19/11 A2988 RMK A01 T01940106  RH  057%=      5-min Rain = 0
KPG1 181511Z 19002KT 19/11 A2988 RMK A01 T01940106  RH  057%=      5-min Rain = 0
KPG1 181512Z 23004KT 20/11 A2989 RMK A01 T01960106  RH  056%=      5-min Rain = 0
KPG1 181513Z 21004KT 20/11 A2989 RMK A01 T01960106  RH  056%=      5-min Rain = 0
KPG1 181514Z 17001KT 19/11 A2989 RMK A01 T01940106  RH  057%=      5-min Rain = 0
KPG1 181515Z 21002KT 20/11 A2989 RMK A01 T01950107  RH  056%=      5-min Rain = 0
KPG1 181516Z 19003KT 20/11 A2989 RMK A01 T01970106  RH  056%=      5-min Rain = 0
KPG1 181517Z 17002KT 20/11 A2989 RMK A01 T01990107  RH  055%=      5-min Rain = 0
KPG1 181518Z 17003KT 20/11 A2989 RMK A01 T02010107  RH  055%=      5-min Rain = 0
KPG1 181519Z 17003KT 20/11 A2989 RMK A01 T02020107  RH  054%=      5-min Rain = 0
KPG1 181520Z 18003KT 20/11 A2989 RMK A01 T02030106  RH  054%=      5-min Rain = 0
KPG1 181521Z 18002KT 20/11 A2989 RMK A01 T02020107  RH  054%=      5-min Rain = 0
KPG1 181522Z 20003KT 20/11 A2989 RMK A01 T02030107  RH  054%=      5-min Rain = 0
KPG1 181523Z 21003KT 20/11 A2989 RMK A01 T02040108  RH  054%=      5-min Rain = 0
KPG1 181524Z 22003KT 21/11 A2989 RMK A01 T02060108  RH  054%=      5-min Rain = 0
KPG1 181525Z 22002KT 21/11 A2989 RMK A01 T02060108  RH  054%=      5-min Rain = 0
KPG1 181526Z 20003KT 21/11 A2989 RMK A01 T02060108  RH  054%=      5-min Rain = 0
KPG1 181527Z 20004KT 21/11 A2989 RMK A01 T02070109  RH  053%=      5-min Rain = 0
KPG1 181528Z 22004KT 21/11 A2989 RMK A01 T02090109  RH  053%=      5-min Rain = 0
KPG1 181529Z 21002KT 21/11 A2989 RMK A01 T02080108  RH  053%=      5-min Rain = 0
KPG1 181530Z 18003KT 21/11 A2989 RMK A01 T02060108  RH  053%=      5-min Rain = 0
KPG1 181531Z 19003KT 21/11 A2989 RMK A01 T02070108  RH  053%=      5-min Rain = 0
KPG1 181532Z 20005KT 21/11 A2989 RMK A01 T02080108  RH  053%=      5-min Rain = 0
KPG1 181533Z 21004KT 21/11 A2989 RMK A01 T02070109  RH  053%=      5-min Rain = 0
KPG1 181534Z 22005KT 21/11 A2989 RMK A01 T02060109  RH  054%=      5-min Rain = 0
KPG1 181535Z 22005KT 21/11 A2989 RMK A01 T02060110  RH  054%=      5-min Rain = 0
KPG1 181536Z 22005KT 21/11 A2989 RMK A01 T02070109  RH  054%=      5-min Rain = 0
KPG1 181537Z 23004KT 21/11 A2989 RMK A01 T02070109  RH  053%=      5-min Rain = 0
KPG1 181538Z 22004KT 21/11 A2989 RMK A01 T02060109  RH  054%=      5-min Rain = 0
KPG1 181539Z 23004KT 21/11 A2989 RMK A01 T02060109  RH  054%=      5-min Rain = 0
KPG1 181540Z 22002KT 21/11 A2989 RMK A01 T02060110  RH  054%=      5-min Rain = 0
KPG1 181541Z 18004KT 21/11 A2989 RMK A01 T02080110  RH  053%=      5-min Rain = 0
KPG1 181542Z 20003KT 21/11 A2989 RMK A01 T02100110  RH  053%=      5-min Rain = 0
KPG1 181543Z 17002KT 21/11 A2989 RMK A01 T02110110  RH  052%=      5-min Rain = 0
KPG1 181544Z 19004KT 21/11 A2989 RMK A01 T02120111  RH  052%=      5-min Rain = 0
KPG1 181545Z 22005KT 21/11 A2989 RMK A01 T02140112  RH  052%=      5-min Rain = 0
KPG1 181546Z 22004KT 22/11 A2989 RMK A01 T02150111  RH  052%=      5-min Rain = 0
KPG1 181547Z 20002KT 21/11 A2988 RMK A01 T02130111  RH  052%=      5-min Rain = 0
KPG1 181548Z 20004KT 21/11 A2988 RMK A01 T02120112  RH  053%=      5-min Rain = 0
KPG1 181549Z 22005KT 21/11 A2988 RMK A01 T02130112  RH  053%=      5-min Rain = 0
KPG1 181550Z 21004KT 21/11 A2988 RMK A01 T02130112  RH  052%=      5-min Rain = 0
KPG1 181551Z 22004KT 21/11 A2988 RMK A01 T02140113  RH  053%=      5-min Rain = 0
KPG1 181552Z 23003KT 21/11 A2988 RMK A01 T02140114  RH  053%=      5-min Rain = 0
KPG1 181553Z 20006KT 22/12 A2988 RMK A01 T02170115  RH  052%=      5-min Rain = 0
KPG1 181554Z 20006KT 22/12 A2988 RMK A01 T02180115  RH  052%=      5-min Rain = 0
KPG1 181555Z 20003KT 22/12 A2988 RMK A01 T02170115  RH  052%=      5-min Rain = 0
KPG1 181556Z 21003KT 22/12 A2988 RMK A01 T02170116  RH  052%=      5-min Rain = 0
KPG1 181557Z 21004KT 22/12 A2988 RMK A01 T02190115  RH  052%=      5-min Rain = 0
KPG1 181558Z 19005KT 22/12 A2988 RMK A01 T02190116  RH  052%=      5-min Rain = 0
KPG1 181559Z 19004KT 22/12 A2988 RMK A01 T02190116  RH  052%=      5-min Rain = 0
KPG1 181600Z 20004KT 22/12 A2988 RMK A01 T02190115  RH  051%=      5-min Rain = 0
KPG1 181601Z 20004KT 22/12 A2988 RMK A01 T02180115  RH  052%=      5-min Rain = 0
KPG1 181602Z 18003KT 22/11 A2988 RMK A01 T02190114  RH  051%=      5-min Rain = 0
KPG1 181603Z 19004KT 22/11 A2988 RMK A01 T02210114  RH  051%=      5-min Rain = 0
KPG1 181604Z 17003KT 22/12 A2988 RMK A01 T02210115  RH  051%=      5-min Rain = 0
KPG1 181605Z 22006KT 22/12 A2988 RMK A01 T02240116  RH  051%=      5-min Rain = 0
KPG1 181606Z 20007KT 23/12 A2988 RMK A01 T02250116  RH  050%=      5-min Rain = 0
KPG1 181607Z 22005KT 22/12 A2988 RMK A01 T02240116  RH  050%=      5-min Rain = 0
KPG1 181608Z 22006KT 22/12 A2988 RMK A01 T02230116  RH  051%=      5-min Rain = 0
KPG1 181609Z 21006KT 22/12 A2988 RMK A01 T02230117  RH  051%=      5-min Rain = 0
KPG1 181610Z 21007KT 22/12 A2988 RMK A01 T02230117  RH  051%=      5-min Rain = 0
KPG1 181611Z 20006KT 23/12 A2988 RMK A01 T02250117  RH  051%=      5-min Rain = 0
KPG1 181612Z 21006KT 23/12 A2988 RMK A01 T02270117  RH  050%=      5-min Rain = 0
KPG1 181613Z 23005KT 23/12 A2988 RMK A01 T02270116  RH  049%=      5-min Rain = 0
KPG1 181614Z 23005KT 23/12 A2988 RMK A01 T02250116  RH  050%=      5-min Rain = 0
KPG1 181615Z 20006KT 23/12 A2988 RMK A01 T02250117  RH  050%=      5-min Rain = 0
KPG1 181616Z 20005KT 23/12 A2988 RMK A01 T02270118  RH  050%=      5-min Rain = 0
KPG1 181617Z 22004KT 23/12 A2988 RMK A01 T02270118  RH  050%=      5-min Rain = 0
KPG1 181618Z 21004KT 23/12 A2988 RMK A01 T02320119  RH  049%=      5-min Rain = 0
KPG1 181619Z 22007KT 24/12 A2987 RMK A01 T02350119  RH  048%=      5-min Rain = 0
KPG1 181620Z 22006KT 24/12 A2987 RMK A01 T02350118  RH  048%=      5-min Rain = 0
KPG1 181621Z 21006KT 23/12 A2987 RMK A01 T02310117  RH  049%=      5-min Rain = 0
KPG1 181622Z 22005KT 23/12 A2987 RMK A01 T02300117  RH  049%=      5-min Rain = 0
KPG1 181623Z 22008KT 23/12 A2987 RMK A01 T02300117  RH  049%=      5-min Rain = 0
KPG1 181624Z 22005KT 23/12 A2987 RMK A01 T02310117  RH  049%=      5-min Rain = 0
KPG1 181625Z 22007KT 23/12 A2987 RMK A01 T02300118  RH  049%=      5-min Rain = 0
KPG1 181626Z 22007KT 23/12 A2987 RMK A01 T02310118  RH  049%=      5-min Rain = 0
KPG1 181627Z 21008KT 23/12 A2987 RMK A01 T02300117  RH  049%=      5-min Rain = 0
KPG1 181628Z 19006KT 23/12 A2987 RMK A01 T02300118  RH  049%=      5-min Rain = 0
KPG1 181629Z 18005KT 23/12 A2987 RMK A01 T02320119  RH  049%=      5-min Rain = 0
KPG1 181630Z 19005KT 24/12 A2987 RMK A01 T02350119  RH  048%=      5-min Rain = 0
KPG1 181631Z 20006KT 24/12 A2987 RMK A01 T02370118  RH  047%=      5-min Rain = 0
KPG1 181632Z 20005KT 24/12 A2987 RMK A01 T02370119  RH  047%=      5-min Rain = 0
KPG1 181633Z 19005KT 24/12 A2987 RMK A01 T02360118  RH  047%=      5-min Rain = 0
KPG1 181634Z 21006KT 24/12 A2987 RMK A01 T02350118  RH  048%=      5-min Rain = 0
KPG1 181635Z 23006KT 24/12 A2987 RMK A01 T02350118  RH  048%=      5-min Rain = 0
KPG1 181636Z 23006KT 24/12 A2987 RMK A01 T02360118  RH  048%=      5-min Rain = 0
KPG1 181637Z 23005KT 24/12 A2987 RMK A01 T02360118  RH  047%=      5-min Rain = 0
KPG1 181638Z 24005KT 24/12 A2987 RMK A01 T02360119  RH  048%=      5-min Rain = 0
KPG1 181639Z 22005KT 24/12 A2987 RMK A01 T02370120  RH  048%=      5-min Rain = 0
KPG1 181640Z 19004KT 24/12 A2987 RMK A01 T02400120  RH  047%=      5-min Rain = 0
KPG1 181641Z 20004KT 24/12 A2987 RMK A01 T02410120  RH  047%=      5-min Rain = 0
KPG1 181642Z 17004KT 24/12 A2987 RMK A01 T02400120  RH  047%=      5-min Rain = 0
KPG1 181643Z 17004KT 24/12 A2987 RMK A01 T02430121  RH  046%=      5-min Rain = 0
KPG1 181644Z 18005KT 25/12 A2987 RMK A01 T02470121  RH  045%=      5-min Rain = 0
KPG1 181645Z 23005KT 25/12 A2987 RMK A01 T02490120  RH  045%=      5-min Rain = 0
KPG1 181646Z 24004KT 25/12 A2987 RMK A01 T02470120  RH  045%=      5-min Rain = 0
KPG1 181647Z 23004KT 24/12 A2987 RMK A01 T02430120  RH  046%=      5-min Rain = 0
KPG1 181648Z 20005KT 24/12 A2987 RMK A01 T02430120  RH  046%=      5-min Rain = 0
KPG1 181649Z 22005KT 25/12 A2987 RMK A01 T02450121  RH  046%=      5-min Rain = 0
KPG1 181650Z 22008KT 25/12 A2987 RMK A01 T02480121  RH  045%=      5-min Rain = 0
KPG1 181651Z 20005KT 25/12 A2987 RMK A01 T02470121  RH  045%=      5-min Rain = 0
KPG1 181652Z 23006KT 25/12 A2987 RMK A01 T02450122  RH  046%=      5-min Rain = 0
KPG1 181653Z 24006KT 25/12 A2987 RMK A01 T02450123  RH  046%=      5-min Rain = 0
KPG1 181654Z 21007KT 25/12 A2986 RMK A01 T02450123  RH  046%=      5-min Rain = 0
KPG1 181655Z 21006KT 25/12 A2986 RMK A01 T02450122  RH  046%=      5-min Rain = 0
KPG1 181656Z 21005KT 24/12 A2986 RMK A01 T02430122  RH  047%=      5-min Rain = 0
KPG1 181657Z 22006KT 24/12 A2986 RMK A01 T02440122  RH  047%=      5-min Rain = 0
KPG1 181658Z 22005KT 25/12 A2986 RMK A01 T02450122  RH  046%=      5-min Rain = 0
KPG1 181659Z 21005KT 25/12 A2986 RMK A01 T02460123  RH  046%=      5-min Rain = 0
KPG1 181700Z 22003KT 25/12 A2986 RMK A01 T02480122  RH  045%=      5-min Rain = 0
KPG1 181701Z 21003KT 25/12 A2986 RMK A01 T02490123  RH  045%=      5-min Rain = 0
KPG1 181702Z 20005KT 25/12 A2986 RMK A01 T02510124  RH  045%=      5-min Rain = 0
KPG1 181703Z 18005KT 25/12 A2986 RMK A01 T02520124  RH  045%=      5-min Rain = 0
KPG1 181704Z 18005KT 25/12 A2986 RMK A01 T02540124  RH  044%=      5-min Rain = 0
KPG1 181705Z 20003KT 26/12 A2986 RMK A01 T02550124  RH  044%=      5-min Rain = 0
KPG1 181706Z 20004KT 26/13 A2986 RMK A01 T02580125  RH  044%=      5-min Rain = 0
KPG1 181707Z 24007KT 26/12 A2986 RMK A01 T02580124  RH  043%=      5-min Rain = 0
KPG1 181708Z 26005KT 26/12 A2986 RMK A01 T02560124  RH  044%=      5-min Rain = 0
KPG1 181709Z 22006KT 26/12 A2986 RMK A01 T02560124  RH  044%=      5-min Rain = 0
KPG1 181710Z 21002KT 25/12 A2986 RMK A01 T02540123  RH  044%=      5-min Rain = 0
KPG1 181711Z 16002KT 25/12 A2986 RMK A01 T02530123  RH  044%=      5-min Rain = 0
KPG1 181712Z 23002KT 25/12 A2986 RMK A01 T02520123  RH  045%=      5-min Rain = 0
KPG1 181713Z 23004KT 25/13 A2986 RMK A01 T02540125  RH  044%=      5-min Rain = 0
KPG1 181714Z 23007KT 26/13 A2986 RMK A01 T02590126  RH  044%=      5-min Rain = 0
KPG1 181715Z 21007KT 26/13 A2986 RMK A01 T02590126  RH  043%=      5-min Rain = 0
KPG1 181716Z 23007KT 26/13 A2986 RMK A01 T02580126  RH  044%=      5-min Rain = 0
KPG1 181717Z 21006KT 26/13 A2986 RMK A01 T02570126  RH  044%=      5-min Rain = 0
KPG1 181718Z 20006KT 26/13 A2986 RMK A01 T02560126  RH  044%=      5-min Rain = 0
KPG1 181719Z 20003KT 26/13 A2986 RMK A01 T02560126  RH  044%=      5-min Rain = 0
KPG1 181720Z 15004KT 26/13 A2986 RMK A01 T02570126  RH  044%=      5-min Rain = 0
KPG1 181721Z 15004KT 26/13 A2985 RMK A01 T02590126  RH  044%=      5-min Rain = 0
KPG1 181722Z 23008KT 26/13 A2985 RMK A01 T02620127  RH  043%=      5-min Rain = 0
KPG1 181723Z 25007KT 26/13 A2985 RMK A01 T02640126  RH  042%=      5-min Rain = 0
KPG1 181724Z 24008KT 26/13 A2985 RMK A01 T02610128  RH  044%=      5-min Rain = 0
KPG1 181725Z 24007KT 26/13 A2985 RMK A01 T02610127  RH  043%=      5-min Rain = 0
KPG1 181726Z 23007KT 26/13 A2985 RMK A01 T02630128  RH  043%=      5-min Rain = 0
KPG1 181727Z 22007KT 27/13 A2985 RMK A01 T02660128  RH  042%=      5-min Rain = 0
KPG1 181728Z 24004KT 26/13 A2985 RMK A01 T02630127  RH  043%=      5-min Rain = 0
KPG1 181729Z 19006KT 26/13 A2985 RMK A01 T02620128  RH  043%=      5-min Rain = 0
KPG1 181730Z 23007KT 26/13 A2985 RMK A01 T02630128  RH  043%=      5-min Rain = 0
KPG1 181731Z 25008KT 27/13 A2985 RMK A01 T02660128  RH  042%=      5-min Rain = 0
KPG1 181732Z 24007KT 27/13 A2985 RMK A01 T02670128  RH  042%=      5-min Rain = 0
KPG1 181733Z 21005KT 27/13 A2985 RMK A01 T02650127  RH  042%=      5-min Rain = 0
KPG1 181734Z 19005KT 27/13 A2985 RMK A01 T02650127  RH  043%=      5-min Rain = 0
KPG1 181735Z 18003KT 26/13 A2985 RMK A01 T02640127  RH  043%=      5-min Rain = 0
KPG1 181736Z 27006KT 27/13 A2984 RMK A01 T02650127  RH  042%=      5-min Rain = 0
KPG1 181737Z 26006KT 27/13 A2984 RMK A01 T02660127  RH  042%=      5-min Rain = 0
KPG1 181738Z 25006KT 26/13 A2984 RMK A01 T02640127  RH  042%=      5-min Rain = 0
KPG1 181739Z 22005KT 26/13 A2984 RMK A01 T02630127  RH  043%=      5-min Rain = 0
KPG1 181740Z 22002KT 26/13 A2984 RMK A01 T02630127  RH  043%=      5-min Rain = 0
KPG1 181741Z 22005KT 27/13 A2984 RMK A01 T02670127  RH  042%=      5-min Rain = 0
KPG1 181742Z 21006KT 27/13 A2984 RMK A01 T02690128  RH  042%=      5-min Rain = 0
KPG1 181743Z 25007KT 27/13 A2984 RMK A01 T02710129  RH  041%=      5-min Rain = 0
KPG1 181744Z 23005KT 27/13 A2984 RMK A01 T02690128  RH  042%=      5-min Rain = 0
KPG1 181745Z 23008KT 27/13 A2984 RMK A01 T02710129  RH  041%=      5-min Rain = 0
KPG1 181746Z 21007KT 28/13 A2984 RMK A01 T02750129  RH  041%=      5-min Rain = 0
KPG1 181747Z 21008KT 28/13 A2984 RMK A01 T02750129  RH  040%=      5-min Rain = 0
KPG1 181748Z 23007KT 28/13 A2984 RMK A01 T02760129  RH  040%=      5-min Rain = 0
KPG1 181749Z 20005KT 28/13 A2984 RMK A01 T02760129  RH  040%=      5-min Rain = 0
KPG1 181750Z 23005KT 28/13 A2984 RMK A01 T02760129  RH  040%=      5-min Rain = 0
KPG1 181751Z 23004KT 28/13 A2984 RMK A01 T02760129  RH  040%=      5-min Rain = 0
KPG1 181752Z 25006KT 27/13 A2983 RMK A01 T02740129  RH  041%=      5-min Rain = 0
KPG1 181753Z 21009KT 27/13 A2983 RMK A01 T02740129  RH  041%=      5-min Rain = 0
KPG1 181754Z 20008KT 28/13 A2983 RMK A01 T02760130  RH  040%=      5-min Rain = 0
KPG1 181755Z 22006KT 28/13 A2983 RMK A01 T02790130  RH  040%=      5-min Rain = 0
KPG1 181756Z 22006KT 28/13 A2983 RMK A01 T02780130  RH  040%=      5-min Rain = 0
KPG1 181757Z 23008KT 28/13 A2983 RMK A01 T02790129  RH  040%=      5-min Rain = 0
KPG1 181758Z 22008KT 28/13 A2983 RMK A01 T02780129  RH  040%=      5-min Rain = 0
KPG1 181759Z 21007KT 28/13 A2983 RMK A01 T02770129  RH  040%=      5-min Rain = 0
KPG1 181800Z 24006KT 28/13 A2983 RMK A01 T02790129  RH  040%=      5-min Rain = 0
KPG1 181801Z 24006KT 28/13 A2983 RMK A01 T02800129  RH  039%=      5-min Rain = 0
KPG1 181802Z 24003KT 28/13 A2983 RMK A01 T02780129  RH  040%=      5-min Rain = 0
KPG1 181803Z 24005KT 28/13 A2983 RMK A01 T02760129  RH  040%=      5-min Rain = 0
KPG1 181804Z 24003KT 28/13 A2983 RMK A01 T02760129  RH  040%=      5-min Rain = 0
KPG1 181805Z 21005KT 28/13 A2983 RMK A01 T02780129  RH  040%=      5-min Rain = 0
KPG1 181806Z 23004KT 28/13 A2982 RMK A01 T02810130  RH  039%=      5-min Rain = 0
KPG1 181807Z 22009KT 28/13 A2982 RMK A01 T02840130  RH  039%=      5-min Rain = 0
KPG1 181808Z 18009G14KT 29/13 A2982 RMK A01 T02850130  RH  038%=      5-min Rain = 0
KPG1 181809Z 18007G12KT 29/13 A2982 RMK A01 T02860129  RH  038%=      5-min Rain = 0
KPG1 181810Z 20007KT 29/13 A2982 RMK A01 T02850129  RH  038%=      5-min Rain = 0
KPG1 181811Z 19006KT 29/13 A2982 RMK A01 T02860130  RH  038%=      5-min Rain = 0
KPG1 181812Z 19007KT 29/13 A2982 RMK A01 T02890130  RH  038%=      5-min Rain = 0
KPG1 181813Z 21008KT 29/13 A2982 RMK A01 T02910130  RH  037%=      5-min Rain = 0
KPG1 181814Z 23006KT 29/13 A2982 RMK A01 T02900129  RH  037%=      5-min Rain = 0
KPG1 181815Z 24007KT 29/13 A2982 RMK A01 T02860129  RH  038%=      5-min Rain = 0
KPG1 181816Z 25005KT 29/13 A2982 RMK A01 T02850128  RH  038%=      5-min Rain = 0
KPG1 181817Z 26004KT 28/13 A2982 RMK A01 T02830128  RH  038%=      5-min Rain = 0
KPG1 181818Z 24007KT 28/13 A2982 RMK A01 T02820128  RH  039%=      5-min Rain = 0
KPG1 181819Z 22007KT 28/13 A2982 RMK A01 T02830127  RH  038%=      5-min Rain = 0
KPG1 181820Z 24008KT 28/13 A2982 RMK A01 T02820128  RH  038%=      5-min Rain = 0
KPG1 181821Z 23006KT 28/13 A2982 RMK A01 T02820127  RH  038%=      5-min Rain = 0
KPG1 181822Z 23005KT 28/13 A2982 RMK A01 T02840128  RH  038%=      5-min Rain = 0
KPG1 181823Z 24004KT 29/13 A2982 RMK A01 T02850128  RH  038%=      5-min Rain = 0
KPG1 181824Z 23002KT 29/13 A2981 RMK A01 T02850129  RH  038%=      5-min Rain = 0
KPG1 181825Z 15003KT 29/13 A2981 RMK A01 T02860128  RH  038%=      5-min Rain = 0
KPG1 181826Z 17004KT 29/13 A2981 RMK A01 T02880129  RH  037%=      5-min Rain = 0
KPG1 181827Z 20004KT 29/13 A2981 RMK A01 T02920128  RH  036%=      5-min Rain = 0
KPG1 181828Z 18006KT 29/13 A2981 RMK A01 T02930129  RH  037%=      5-min Rain = 0
KPG1 181829Z 18006KT 29/13 A2981 RMK A01 T02930129  RH  036%=      5-min Rain = 0
KPG1 181830Z 17006KT 29/13 A2981 RMK A01 T02940129  RH  036%=      5-min Rain = 0
KPG1 181831Z 19008KT 29/13 A2981 RMK A01 T02930128  RH  036%=      5-min Rain = 0
KPG1 181832Z 19008KT 29/13 A2981 RMK A01 T02940128  RH  036%=      5-min Rain = 0
KPG1 181833Z 20008KT 29/13 A2981 RMK A01 T02940127  RH  036%=      5-min Rain = 0
KPG1 181834Z 21008KT 29/13 A2981 RMK A01 T02920126  RH  036%=      5-min Rain = 0
KPG1 181835Z 21006KT 29/13 A2981 RMK A01 T02910127  RH  036%=      5-min Rain = 0
KPG1 181836Z 20006KT 29/13 A298 RMK A01 T02910127  RH  036%=      5-min Rain = 0
KPG1 181837Z 20004KT 29/13 A298 RMK A01 T02910127  RH  036%=      5-min Rain = 0
KPG1 181838Z 22004KT 29/13 A298 RMK A01 T02930126  RH  036%=      5-min Rain = 0
KPG1 181839Z 24008KT 29/13 A298 RMK A01 T02940126  RH  035%=      5-min Rain = 0
KPG1 181840Z 23007KT 29/13 A298 RMK A01 T02940125  RH  035%=      5-min Rain = 0
KPG1 181841Z 22005KT 29/13 A298 RMK A01 T02940126  RH  036%=      5-min Rain = 0
KPG1 181842Z 20010KT 30/13 A298 RMK A01 T02960126  RH  035%=      5-min Rain = 0
KPG1 181843Z 21010G16KT 30/12 A298 RMK A01 T02990124  RH  034%=      5-min Rain = 0
KPG1 181844Z 20010KT 30/12 A298 RMK A01 T03000124  RH  034%=      5-min Rain = 0
KPG1 181845Z 21012KT 30/12 A2979 RMK A01 T03010124  RH  034%=      5-min Rain = 0
KPG1 181846Z 22012G21KT 30/12 A2979 RMK A01 T03030123  RH  033%=      5-min Rain = 0
KPG1 181847Z 24007KT 30/12 A2979 RMK A01 T03040122  RH  033%=      5-min Rain = 0
KPG1 181848Z 21005KT 31/12 A2979 RMK A01 T03050123  RH  033%=      5-min Rain = 0
KPG1 181849Z 21007KT 31/12 A2979 RMK A01 T03070124  RH  033%=      5-min Rain = 0
KPG1 181850Z 21007KT 31/12 A2979 RMK A01 T03070123  RH  032%=      5-min Rain = 0
KPG1 181851Z 21006KT 31/12 A2979 RMK A01 T03060124  RH  033%=      5-min Rain = 0
KPG1 181852Z 22007KT 31/12 A2979 RMK A01 T03070122  RH  032%=      5-min Rain = 0
KPG1 181853Z 23006KT 31/12 A2979 RMK A01 T03070121  RH  032%=      5-min Rain = 0
KPG1 181854Z 23006KT 31/12 A2979 RMK A01 T03070121  RH  032%=      5-min Rain = 0
KPG1 181855Z 26011KT 31/12 A2979 RMK A01 T03070121  RH  032%=      5-min Rain = 0
KPG1 181856Z 26008KT 31/12 A2979 RMK A01 T03050121  RH  032%=      5-min Rain = 0
KPG1 181857Z 25008KT 30/12 A2978 RMK A01 T03010121  RH  033%=      5-min Rain = 0
KPG1 181858Z 27007KT 30/12 A2978 RMK A01 T03010122  RH  033%=      5-min Rain = 0
KPG1 181859Z 28007KT 30/12 A2978 RMK A01 T03030120  RH  032%=      5-min Rain = 0
KPG1 181900Z 27005KT 30/12 A2978 RMK A01 T03020119  RH  033%=      5-min Rain = 0
KPG1 181901Z 25006KT 30/12 A2978 RMK A01 T03000121  RH  033%=      5-min Rain = 0
KPG1 181902Z 27006KT 30/12 A2978 RMK A01 T03040122  RH  033%=      5-min Rain = 0
KPG1 181903Z 27006KT 31/12 A2978 RMK A01 T03060121  RH  032%=      5-min Rain = 0
KPG1 181904Z 26006KT 31/12 A2978 RMK A01 T03050120  RH  032%=      5-min Rain = 0
KPG1 181905Z 25006KT 30/12 A2978 RMK A01 T03040121  RH  032%=      5-min Rain = 0
KPG1 181906Z 24005KT 31/12 A2978 RMK A01 T03060122  RH  032%=      5-min Rain = 0
KPG1 181907Z 27008KT 31/12 A2978 RMK A01 T03090122  RH  032%=      5-min Rain = 0
KPG1 181908Z 27006KT 31/12 A2977 RMK A01 T03110122  RH  031%=      5-min Rain = 0
KPG1 181909Z 28009KT 31/12 A2977 RMK A01 T03080121  RH  032%=      5-min Rain = 0
KPG1 181910Z 26008KT 30/12 A2977 RMK A01 T03040120  RH  032%=      5-min Rain = 0
KPG1 181911Z 25008KT 30/12 A2977 RMK A01 T03020120  RH  033%=      5-min Rain = 0
KPG1 181912Z 24009KT 31/12 A2977 RMK A01 T03060115  RH  031%=      5-min Rain = 0
KPG1 181913Z 24006G11KT 31/11 A2977 RMK A01 T03070111  RH  030%=      5-min Rain = 0
KPG1 181914Z 23010KT 31/11 A2977 RMK A01 T03100110  RH  029%=      5-min Rain = 0
KPG1 181915Z 24011G19KT 31/11 A2977 RMK A01 T03120111  RH  029%=      5-min Rain = 0
KPG1 181916Z 24013KT 31/11 A2977 RMK A01 T03140112  RH  029%=      5-min Rain = 0
KPG1 181917Z 24011KT 31/11 A2977 RMK A01 T03140113  RH  029%=      5-min Rain = 0
KPG1 181918Z 23007KT 31/11 A2977 RMK A01 T03130113  RH  029%=      5-min Rain = 0
KPG1 181919Z 25012KT 31/11 A2977 RMK A01 T03130111  RH  029%=      5-min Rain = 0
KPG1 181920Z 24012KT 31/11 A2976 RMK A01 T03120108  RH  029%=      5-min Rain = 0
KPG1 181921Z 24011KT 31/11 A2976 RMK A01 T03120108  RH  028%=      5-min Rain = 0
KPG1 181922Z 24012KT 31/11 A2976 RMK A01 T03120108  RH  028%=      5-min Rain = 0
KPG1 181923Z 24016KT 31/11 A2976 RMK A01 T03140110  RH  028%=      5-min Rain = 0
KPG1 181924Z 24012KT 32/11 A2976 RMK A01 T03150110  RH  028%=      5-min Rain = 0
KPG1 181925Z 26012KT 32/11 A2976 RMK A01 T03160109  RH  028%=      5-min Rain = 0
KPG1 181926Z 25008KT 32/11 A2976 RMK A01 T03150110  RH  028%=      5-min Rain = 0
KPG1 181927Z 23011KT 32/11 A2976 RMK A01 T03170111  RH  028%=      5-min Rain = 0
KPG1 181928Z 23010KT 32/11 A2976 RMK A01 T03190110  RH  028%=      5-min Rain = 0
KPG1 181929Z 22007KT 32/11 A2976 RMK A01 T03170107  RH  028%=      5-min Rain = 0
KPG1 181930Z 19008KT 32/10 A2976 RMK A01 T03150101  RH  027%=      5-min Rain = 0
KPG1 181931Z 20008KT 32/10 A2976 RMK A01 T03160098  RH  026%=      5-min Rain = 0
KPG1 181932Z 18011KT 32/10 A2976 RMK A01 T03190101  RH  026%=      5-min Rain = 0
KPG1 181933Z 18009KT 32/10 A2975 RMK A01 T03190101  RH  026%=      5-min Rain = 0
KPG1 181934Z 17007KT 32/10 A2975 RMK A01 T03160102  RH  027%=      5-min Rain = 0
KPG1 181935Z 16007KT 31/10 A2975 RMK A01 T03140103  RH  027%=      5-min Rain = 0
KPG1 181936Z 20006KT 32/10 A2975 RMK A01 T03190104  RH  027%=      5-min Rain = 0
KPG1 181937Z 22013KT 32/10 A2975 RMK A01 T03210103  RH  026%=      5-min Rain = 0
KPG1 181938Z 24012KT 32/10 A2975 RMK A01 T03210100  RH  026%=      5-min Rain = 0
KPG1 181939Z 24010KT 32/10 A2975 RMK A01 T03190100  RH  026%=      5-min Rain = 0
KPG1 181940Z 23009KT 32/10 A2975 RMK A01 T03180099  RH  026%=      5-min Rain = 0
KPG1 181941Z 27012KT 32/10 A2975 RMK A01 T03170103  RH  027%=      5-min Rain = 0
KPG1 181942Z 28009KT 32/11 A2975 RMK A01 T03170107  RH  027%=      5-min Rain = 0
KPG1 181943Z 28006KT 32/11 A2975 RMK A01 T03170107  RH  028%=      5-min Rain = 0
KPG1 181944Z 26009KT 32/11 A2975 RMK A01 T03170107  RH  027%=      5-min Rain = 0
KPG1 181945Z 24008KT 32/11 A2975 RMK A01 T03180106  RH  027%=      5-min Rain = 0
KPG1 181946Z 25012KT 32/11 A2975 RMK A01 T03170106  RH  027%=      5-min Rain = 0
KPG1 181947Z 27010KT 32/10 A2975 RMK A01 T03150104  RH  027%=      5-min Rain = 0
KPG1 181948Z 26007KT 31/10 A2975 RMK A01 T03130102  RH  027%=      5-min Rain = 0
KPG1 181949Z 28006KT 31/10 A2975 RMK A01 T03110104  RH  028%=      5-min Rain = 0
KPG1 181950Z 27004KT 31/10 A2975 RMK A01 T03090103  RH  028%=      5-min Rain = 0
KPG1 181951Z 25004KT 31/10 A2975 RMK A01 T03070104  RH  029%=      5-min Rain = 0
KPG1 181952Z 28004KT 31/11 A2975 RMK A01 T03070105  RH  029%=      5-min Rain = 0
KPG1 181953Z 27003KT 31/11 A2975 RMK A01 T03070105  RH  029%=      5-min Rain = 0
KPG1 181954Z 17005KT 31/11 A2975 RMK A01 T03080106  RH  029%=      5-min Rain = 0
KPG1 181955Z 23009KT 31/11 A2974 RMK A01 T03140108  RH  028%=      5-min Rain = 0
KPG1 181956Z 22008KT 32/11 A2975 RMK A01 T03170107  RH  028%=      5-min Rain = 0
KPG1 181957Z 23008KT 32/11 A2974 RMK A01 T03170107  RH  027%=      5-min Rain = 0
KPG1 181958Z 23007KT 32/11 A2974 RMK A01 T03180106  RH  027%=      5-min Rain = 0
KPG1 181959Z 24015KT 32/10 A2974 RMK A01 T03230104  RH  026%=      5-min Rain = 0
KPG1 182000Z 24015KT 33/10 A2974 RMK A01 T03270100  RH  025%=      5-min Rain = 0
KPG1 182001Z 25012KT 32/10 A2974 RMK A01 T03230099  RH  025%=      5-min Rain = 0
KPG1 182002Z 26009KT 32/10 A2974 RMK A01 T03200097  RH  025%=      5-min Rain = 0
KPG1 182003Z 23009G14KT 32/10 A2974 RMK A01 T03200097  RH  025%=      5-min Rain = 0
KPG1 182004Z 21014KT 32/09 A2974 RMK A01 T03230092  RH  024%=      5-min Rain = 0
KPG1 182005Z 21011KT 33/09 A2974 RMK A01 T03250090  RH  023%=      5-min Rain = 0
KPG1 182006Z 23008KT 33/09 A2974 RMK A01 T03270091  RH  023%=      5-min Rain = 0
KPG1 182007Z 22014G19KT 33/09 A2974 RMK A01 T03300091  RH  023%=      5-min Rain = 0
KPG1 182008Z 22016KT 33/09 A2974 RMK A01 T03290087  RH  023%=      5-min Rain = 0
KPG1 182009Z 23017KT 33/09 A2974 RMK A01 T03250087  RH  023%=      5-min Rain = 0
KPG1 182010Z 22013KT 32/09 A2974 RMK A01 T03230088  RH  023%=      5-min Rain = 0
KPG1 182011Z 22012KT 32/09 A2974 RMK A01 T03220090  RH  024%=      5-min Rain = 0
KPG1 182012Z 24012KT 33/09 A2974 RMK A01 T03250092  RH  024%=      5-min Rain = 0
KPG1 182013Z 25013KT 33/09 A2974 RMK A01 T03260093  RH  024%=      5-min Rain = 0
KPG1 182014Z 23010KT 32/09 A2974 RMK A01 T03240094  RH  024%=      5-min Rain = 0
KPG1 182015Z 25010KT 32/10 A2974 RMK A01 T03220096  RH  025%=      5-min Rain = 0
KPG1 182016Z 25009G14KT 32/10 A2974 RMK A01 T03230099  RH  025%=      5-min Rain = 0
KPG1 182017Z 23012KT 32/10 A2973 RMK A01 T03240097  RH  025%=      5-min Rain = 0
KPG1 182018Z 23016KT 32/10 A2973 RMK A01 T03240095  RH  024%=      5-min Rain = 0
KPG1 182019Z 23015G20KT 33/09 A2973 RMK A01 T03250093  RH  024%=      5-min Rain = 0
KPG1 182020Z 22011KT 32/09 A2973 RMK A01 T03230092  RH  024%=      5-min Rain = 0
KPG1 182021Z 23009KT 32/09 A2973 RMK A01 T03200092  RH  024%=      5-min Rain = 0
KPG1 182022Z 22011G16KT 32/09 A2973 RMK A01 T03240094  RH  024%=      5-min Rain = 0
KPG1 182023Z 24014G19KT 33/09 A2973 RMK A01 T03270094  RH  024%=      5-min Rain = 0
KPG1 182024Z 25014KT 32/09 A2973 RMK A01 T03240093  RH  024%=      5-min Rain = 0
KPG1 182025Z 26014KT 32/09 A2973 RMK A01 T03200093  RH  025%=      5-min Rain = 0
KPG1 182026Z 25011KT 32/09 A2973 RMK A01 T03200093  RH  025%=      5-min Rain = 0
KPG1 182027Z 25008KT 32/10 A2973 RMK A01 T03220095  RH  025%=      5-min Rain = 0
KPG1 182028Z 25011KT 33/10 A2973 RMK A01 T03260095  RH  024%=      5-min Rain = 0
KPG1 182029Z 23007KT 33/09 A2973 RMK A01 T03260093  RH  024%=      5-min Rain = 0
KPG1 182030Z 23007G18KT 32/09 A2973 RMK A01 T03240094  RH  024%=      5-min Rain = 0
KPG1 182031Z 26014KT 32/10 A2973 RMK A01 T03240097  RH  025%=      5-min Rain = 0
KPG1 182032Z 25015KT 32/09 A2973 RMK A01 T03230093  RH  024%=      5-min Rain = 0
KPG1 182033Z 24014KT 32/09 A2973 RMK A01 T03240089  RH  024%=      5-min Rain = 0
KPG1 182034Z 24012KT 33/09 A2973 RMK A01 T03250090  RH  024%=      5-min Rain = 0
KPG1 182035Z 24014KT 33/09 A2973 RMK A01 T03250090  RH  023%=      5-min Rain = 0
KPG1 182036Z 26010KT 33/09 A2973 RMK A01 T03250091  RH  024%=      5-min Rain = 0
KPG1 182037Z 26008KT 32/09 A2973 RMK A01 T03240092  RH  024%=      5-min Rain = 0
KPG1 182038Z 24011KT 32/09 A2973 RMK A01 T03230093  RH  024%=      5-min Rain = 0
KPG1 182039Z 23010KT 32/09 A2972 RMK A01 T03210094  RH  025%=      5-min Rain = 0
KPG1 182040Z 24008G13KT 32/10 A2973 RMK A01 T03220095  RH  025%=      5-min Rain = 0
KPG1 182041Z 21009KT 32/09 A2972 RMK A01 T03230094  RH  024%=      5-min Rain = 0
KPG1 182042Z 20008KT 32/09 A2972 RMK A01 T03220092  RH  024%=      5-min Rain = 0
KPG1 182043Z 21006KT 32/09 A2972 RMK A01 T03200094  RH  025%=      5-min Rain = 0
KPG1 182044Z 25010KT 32/09 A2972 RMK A01 T03200094  RH  025%=      5-min Rain = 0
KPG1 182045Z 25010KT 32/09 A2972 RMK A01 T03200093  RH  025%=      5-min Rain = 0
KPG1 182046Z 25009KT 32/10 A2972 RMK A01 T03220096  RH  025%=      5-min Rain = 0
KPG1 182047Z 25007KT 33/10 A2972 RMK A01 T03260097  RH  025%=      5-min Rain = 0
KPG1 182048Z 20012KT 33/10 A2972 RMK A01 T03280095  RH  024%=      5-min Rain = 0
KPG1 182049Z 21011G17KT 33/09 A2972 RMK A01 T03290093  RH  023%=      5-min Rain = 0
KPG1 182050Z 19009KT 33/09 A2972 RMK A01 T03270092  RH  024%=      5-min Rain = 0
KPG1 182051Z 20008KT 33/09 A2972 RMK A01 T03250092  RH  024%=      5-min Rain = 0
KPG1 182052Z 23009KT 33/09 A2972 RMK A01 T03250092  RH  024%=      5-min Rain = 0
KPG1 182053Z 26007KT 33/10 A2972 RMK A01 T03250095  RH  024%=      5-min Rain = 0
KPG1 182054Z 27011KT 32/10 A2972 RMK A01 T03220095  RH  025%=      5-min Rain = 0
KPG1 182055Z 26007KT 32/09 A2972 RMK A01 T03220093  RH  024%=      5-min Rain = 0
KPG1 182056Z 22005KT 32/09 A2972 RMK A01 T03210093  RH  024%=      5-min Rain = 0
KPG1 182057Z 22005KT 32/09 A2972 RMK A01 T03200093  RH  025%=      5-min Rain = 0
KPG1 182058Z 22006KT 32/09 A2972 RMK A01 T03210094  RH  025%=      5-min Rain = 0
KPG1 182059Z 23005KT 32/10 A2972 RMK A01 T03230095  RH  025%=      5-min Rain = 0
KPG1 182100Z 24004KT 32/10 A2972 RMK A01 T03240096  RH  024%=      5-min Rain = 0
KPG1 182101Z 23006KT 33/10 A2972 RMK A01 T03250098  RH  025%=      5-min Rain = 0
KPG1 182102Z 22007KT 33/10 A2972 RMK A01 T03300098  RH  024%=      5-min Rain = 0
KPG1 182103Z 21007KT 33/10 A2972 RMK A01 T03300098  RH  024%=      5-min Rain = 0
KPG1 182104Z 21005KT 33/10 A2972 RMK A01 T03270098  RH  024%=      5-min Rain = 0
KPG1 182105Z 23004KT 33/10 A2972 RMK A01 T03260098  RH  025%=      5-min Rain = 0
KPG1 182106Z 23005KT 33/10 A2972 RMK A01 T03260099  RH  025%=      5-min Rain = 0
KPG1 182107Z 21009KT 33/10 A2972 RMK A01 T03290100  RH  025%=      5-min Rain = 0
KPG1 182108Z 20012KT 33/10 A2972 RMK A01 T03300098  RH  024%=      5-min Rain = 0
KPG1 182109Z 20012KT 33/10 A2972 RMK A01 T03310098  RH  024%=      5-min Rain = 0
KPG1 182110Z 22009KT 33/10 A2972 RMK A01 T03330098  RH  024%=      5-min Rain = 0
KPG1 182111Z 22007KT 33/10 A2972 RMK A01 T03340098  RH  024%=      5-min Rain = 0
KPG1 182112Z 23006KT 34/10 A2972 RMK A01 T03350098  RH  023%=      5-min Rain = 0
KPG1 182113Z 23007KT 33/10 A2972 RMK A01 T03330097  RH  024%=      5-min Rain = 0
KPG1 182114Z 24009KT 33/10 A2972 RMK A01 T03330097  RH  024%=      5-min Rain = 0
KPG1 182115Z 24005KT 33/10 A2972 RMK A01 T03340095  RH  023%=      5-min Rain = 0
KPG1 182116Z 22005KT 33/10 A2972 RMK A01 T03330095  RH  023%=      5-min Rain = 0
KPG1 182117Z 22008KT 33/10 A2971 RMK A01 T03330095  RH  023%=      5-min Rain = 0
KPG1 182118Z 21009KT 33/09 A2971 RMK A01 T03320094  RH  023%=      5-min Rain = 0
KPG1 182119Z 21009G14KT 33/09 A2972 RMK A01 T03300089  RH  023%=      5-min Rain = 0
KPG1 182120Z 22007KT 33/09 A2972 RMK A01 T03330088  RH  022%=      5-min Rain = 0
KPG1 182121Z 24009KT 34/09 A2972 RMK A01 T03350088  RH  022%=      5-min Rain = 0
KPG1 182122Z 23008KT 33/09 A2971 RMK A01 T03330088  RH  022%=      5-min Rain = 0
KPG1 182123Z 23010KT 33/09 A2972 RMK A01 T03320090  RH  023%=      5-min Rain = 0
KPG1 182124Z 23010KT 33/09 A2972 RMK A01 T03340090  RH  022%=      5-min Rain = 0
KPG1 182125Z 24013KT 34/09 A2971 RMK A01 T03380086  RH  021%=      5-min Rain = 0
KPG1 182126Z 26012KT 34/08 A2972 RMK A01 T03390079  RH  020%=      5-min Rain = 0
KPG1 182127Z 26008KT 34/08 A2972 RMK A01 T03380077  RH  020%=      5-min Rain = 0
KPG1 182128Z 26010KT 33/08 A2972 RMK A01 T03340076  RH  020%=      5-min Rain = 0
KPG1 182129Z 27010KT 33/08 A2972 RMK A01 T03340078  RH  021%=      5-min Rain = 0
KPG1 182130Z 28008KT 33/08 A2972 RMK A01 T03330079  RH  021%=      5-min Rain = 0
KPG1 182131Z 27009KT 33/08 A2972 RMK A01 T03310078  RH  021%=      5-min Rain = 0
KPG1 182132Z 24006KT 33/08 A2972 RMK A01 T03300079  RH  021%=      5-min Rain = 0
KPG1 182133Z 26004KT 33/08 A2971 RMK A01 T03280080  RH  021%=      5-min Rain = 0
KPG1 182134Z 25008KT 33/08 A2971 RMK A01 T03280080  RH  022%=      5-min Rain = 0
KPG1 182135Z 24012G18KT 33/08 A2971 RMK A01 T03300081  RH  021%=      5-min Rain = 0
KPG1 182136Z 24012G17KT 33/08 A2971 RMK A01 T03330075  RH  020%=      5-min Rain = 0
KPG1 182137Z 23009KT 33/08 A2971 RMK A01 T03320075  RH  020%=      5-min Rain = 0
KPG1 182138Z 23011KT 33/08 A2971 RMK A01 T03320076  RH  020%=      5-min Rain = 0
KPG1 182139Z 24010KT 33/08 A2971 RMK A01 T03320077  RH  021%=      5-min Rain = 0
KPG1 182140Z 24012KT 33/08 A2971 RMK A01 T03330079  RH  021%=      5-min Rain = 0
KPG1 182141Z 23010KT 33/08 A2971 RMK A01 T03320080  RH  021%=      5-min Rain = 0
KPG1 182142Z 22009KT 33/08 A2971 RMK A01 T03340080  RH  021%=      5-min Rain = 0
KPG1 182143Z 21011KT 34/08 A2971 RMK A01 T03350081  RH  021%=      5-min Rain = 0
KPG1 182144Z 22014KT 34/09 A2971 RMK A01 T03360087  RH  022%=      5-min Rain = 0
KPG1 182145Z 23011KT 33/09 A2971 RMK A01 T03340085  RH  022%=      5-min Rain = 0
KPG1 182146Z 21013KT 33/08 A2971 RMK A01 T03320084  RH  022%=      5-min Rain = 0
KPG1 182147Z 22013KT 33/08 A2971 RMK A01 T03330083  RH  021%=      5-min Rain = 0
KPG1 182148Z 23009KT 33/08 A2971 RMK A01 T03330084  RH  022%=      5-min Rain = 0
KPG1 182149Z 22012KT 33/08 A2971 RMK A01 T03340084  RH  021%=      5-min Rain = 0
KPG1 182150Z 23012KT 34/08 A2971 RMK A01 T03350084  RH  021%=      5-min Rain = 0
KPG1 182151Z 21008KT 33/08 A2971 RMK A01 T03340084  RH  021%=      5-min Rain = 0
KPG1 182152Z 22010KT 34/09 A2971 RMK A01 T03370085  RH  021%=      5-min Rain = 0
KPG1 182153Z 23011KT 34/09 A2971 RMK A01 T03380085  RH  021%=      5-min Rain = 0
KPG1 182154Z 23015KT 33/08 A2971 RMK A01 T03340079  RH  021%=      5-min Rain = 0
KPG1 182155Z 23011KT 33/08 A2971 RMK A01 T03300075  RH  021%=      5-min Rain = 0
KPG1 182156Z 24013KT 33/08 A2972 RMK A01 T03280076  RH  021%=      5-min Rain = 0
KPG1 182157Z 26012KT 33/08 A2972 RMK A01 T03270077  RH  021%=      5-min Rain = 0
KPG1 182158Z 25010KT 33/08 A2972 RMK A01 T03250077  RH  021%=      5-min Rain = 0
KPG1 182159Z 26007KT 32/08 A2972 RMK A01 T03230077  RH  022%=      5-min Rain = 0
KPG1 182200Z 24007KT 32/08 A2972 RMK A01 T03220078  RH  022%=      5-min Rain = 0
KPG1 182201Z 23008KT 32/08 A2972 RMK A01 T03240078  RH  022%=      5-min Rain = 0
KPG1 182202Z 24010KT 33/08 A2972 RMK A01 T03280080  RH  022%=      5-min Rain = 0
KPG1 182203Z 23012KT 33/08 A2972 RMK A01 T03320080  RH  021%=      5-min Rain = 0
KPG1 182204Z 25010KT 33/08 A2972 RMK A01 T03340081  RH  021%=      5-min Rain = 0
KPG1 182205Z 23008KT 33/08 A2972 RMK A01 T03340081  RH  021%=      5-min Rain = 0
KPG1 182206Z 26005KT 33/08 A2971 RMK A01 T03320082  RH  021%=      5-min Rain = 0
KPG1 182207Z 24007KT 33/08 A2971 RMK A01 T03280083  RH  022%=      5-min Rain = 0
KPG1 182208Z 23010KT 33/08 A2971 RMK A01 T03280084  RH  022%=      5-min Rain = 0
KPG1 182209Z 22011KT 33/08 A2972 RMK A01 T03280084  RH  022%=      5-min Rain = 0
KPG1 182210Z 22013KT 33/08 A2971 RMK A01 T03280082  RH  022%=      5-min Rain = 0
KPG1 182211Z 21013KT 33/08 A2971 RMK A01 T03270081  RH  022%=      5-min Rain = 0
KPG1 182212Z 23012KT 33/08 A2972 RMK A01 T03280081  RH  022%=      5-min Rain = 0
KPG1 182213Z 23009KT 33/08 A2972 RMK A01 T03300081  RH  022%=      5-min Rain = 0
KPG1 182214Z 22007KT 33/08 A2971 RMK A01 T03340083  RH  021%=      5-min Rain = 0
KPG1 182215Z 21008KT 34/08 A2971 RMK A01 T03360082  RH  021%=      5-min Rain = 0
KPG1 182216Z 21008KT 34/08 A2971 RMK A01 T03350083  RH  021%=      5-min Rain = 0
KPG1 182217Z 23011G16KT 33/08 A2971 RMK A01 T03320082  RH  021%=      5-min Rain = 0
KPG1 182218Z 21012KT 33/08 A2971 RMK A01 T03280082  RH  022%=      5-min Rain = 0
KPG1 182219Z 21011KT 33/08 A2971 RMK A01 T03270082  RH  022%=      5-min Rain = 0
KPG1 182220Z 22010KT 33/08 A2971 RMK A01 T03250081  RH  022%=      5-min Rain = 0
KPG1 182221Z 21008KT 33/08 A2971 RMK A01 T03260082  RH  022%=      5-min Rain = 0
KPG1 182222Z 21010KT 33/08 A2971 RMK A01 T03290082  RH  022%=      5-min Rain = 0
KPG1 182223Z 21008KT 33/08 A2971 RMK A01 T03300081  RH  021%=      5-min Rain = 0
KPG1 182224Z 22007KT 33/08 A2971 RMK A01 T03320083  RH  021%=      5-min Rain = 0
KPG1 182225Z 22010KT 34/08 A2971 RMK A01 T03350083  RH  021%=      5-min Rain = 0
KPG1 182226Z 22009KT 33/08 A2972 RMK A01 T03320082  RH  021%=      5-min Rain = 0
KPG1 182227Z 23009KT 33/08 A2972 RMK A01 T03300082  RH  022%=      5-min Rain = 0
KPG1 182228Z 26010KT 33/08 A2972 RMK A01 T03300075  RH  021%=      5-min Rain = 0
KPG1 182229Z 25007KT 33/05 A2972 RMK A01 T03310049  RH  017%=      5-min Rain = 0
KPG1 182230Z 26011KT 33/04 A2972 RMK A01 T03320043  RH  016%=      5-min Rain = 0
KPG1 182231Z 28009KT 33/04 A2972 RMK A01 T03340035  RH  015%=      5-min Rain = 0
KPG1 182232Z 28015KT 34/03 A2972 RMK A01 T03360032  RH  015%=      5-min Rain = 0
KPG1 182233Z 28011KT 33/03 A2972 RMK A01 T03340031  RH  015%=      5-min Rain = 0
KPG1 182234Z 30014KT 33/03 A2971 RMK A01 T03330030  RH  015%=      5-min Rain = 0
KPG1 182235Z 28014KT 33/03 A2972 RMK A01 T03310030  RH  015%=      5-min Rain = 0
KPG1 182236Z 27013G19KT 33/03 A2972 RMK A01 T03330033  RH  015%=      5-min Rain = 0
KPG1 182237Z 27017KT 33/03 A2972 RMK A01 T03340032  RH  015%=      5-min Rain = 0
KPG1 182238Z 28015KT 33/03 A2972 RMK A01 T03330032  RH  015%=      5-min Rain = 0
KPG1 182239Z 28018KT 33/03 A2972 RMK A01 T03300033  RH  015%=      5-min Rain = 0
KPG1 182240Z 28016KT 33/03 A2972 RMK A01 T03260034  RH  016%=      5-min Rain = 0
KPG1 182241Z 27012G20KT 33/03 A2972 RMK A01 T03250034  RH  016%=      5-min Rain = 0
KPG1 182242Z 27014G19KT 33/04 A2972 RMK A01 T03260035  RH  016%=      5-min Rain = 0
KPG1 182243Z 27014G19KT 33/03 A2972 RMK A01 T03270033  RH  016%=      5-min Rain = 0
KPG1 182244Z 28013KT 33/03 A2972 RMK A01 T03280034  RH  016%=      5-min Rain = 0
KPG1 182245Z 28012KT 33/03 A2972 RMK A01 T03280033  RH  016%=      5-min Rain = 0
KPG1 182246Z 28013G18KT 33/03 A2972 RMK A01 T03280032  RH  015%=      5-min Rain = 0
KPG1 182247Z 27010G17KT 33/03 A2972 RMK A01 T03280032  RH  015%=      5-min Rain = 0
KPG1 182248Z 28013G21KT 33/03 A2972 RMK A01 T03300032  RH  015%=      5-min Rain = 0
KPG1 182249Z 28014KT 33/03 A2972 RMK A01 T03300030  RH  015%=      5-min Rain = 0
KPG1 182250Z 28015KT 33/03 A2972 RMK A01 T03300029  RH  015%=      5-min Rain = 0
KPG1 182251Z 28015G21KT 33/03 A2972 RMK A01 T03280029  RH  015%=      5-min Rain = 0
KPG1 182252Z 29009KT 33/03 A2972 RMK A01 T03270031  RH  015%=      5-min Rain = 0
KPG1 182253Z 28011KT 33/03 A2972 RMK A01 T03280032  RH  015%=      5-min Rain = 0
KPG1 182254Z 29014G20KT 33/03 A2972 RMK A01 T03280034  RH  016%=      5-min Rain = 0
KPG1 182255Z 29013G18KT 33/04 A2972 RMK A01 T03280036  RH  016%=      5-min Rain = 0
KPG1 182256Z 27011G17KT 33/04 A2972 RMK A01 T03280037  RH  016%=      5-min Rain = 0
KPG1 182257Z 27012KT 33/04 A2972 RMK A01 T03280036  RH  016%=      5-min Rain = 0
KPG1 182258Z 26012KT 33/04 A2972 RMK A01 T03280035  RH  016%=      5-min Rain = 0
KPG1 182259Z 28012KT 33/03 A2972 RMK A01 T03270034  RH  016%=      5-min Rain = 0
KPG1 182300Z 28013G18KT 33/03 A2972 RMK A01 T03270034  RH  016%=      5-min Rain = 0
KPG1 182301Z 29012KT 33/04 A2972 RMK A01 T03270035  RH  016%=      5-min Rain = 0
KPG1 182302Z 29011KT 33/04 A2972 RMK A01 T03270036  RH  016%=      5-min Rain = 0
KPG1 182303Z 31007KT 33/04 A2972 RMK A01 T03250036  RH  016%=      5-min Rain = 0
KPG1 182304Z 28011G24KT 33/04 A2972 RMK A01 T03250038  RH  016%=      5-min Rain = 0
KPG1 182305Z 29016G21KT 33/04 A2972 RMK A01 T03250039  RH  017%=      5-min Rain = 0
KPG1 182306Z 28016KT 33/04 A2972 RMK A01 T03250040  RH  017%=      5-min Rain = 0
KPG1 182307Z 27011KT 32/04 A2972 RMK A01 T03240041  RH  017%=      5-min Rain = 0
KPG1 182308Z 27012KT 33/04 A2972 RMK A01 T03250042  RH  017%=      5-min Rain = 0
KPG1 182309Z 27014KT 33/04 A2972 RMK A01 T03250042  RH  017%=      5-min Rain = 0
KPG1 182310Z 27013KT 32/04 A2972 RMK A01 T03230041  RH  017%=      5-min Rain = 0
KPG1 182311Z 27012KT 32/04 A2972 RMK A01 T03220042  RH  017%=      5-min Rain = 0
KPG1 182312Z 27010KT 32/04 A2972 RMK A01 T03220042  RH  017%=      5-min Rain = 0
KPG1 182313Z 28014G20KT 32/04 A2972 RMK A01 T03230043  RH  017%=      5-min Rain = 0
KPG1 182314Z 29016KT 32/05 A2972 RMK A01 T03240046  RH  017%=      5-min Rain = 0
KPG1 182315Z 29012G17KT 32/05 A2972 RMK A01 T03230048  RH  018%=      5-min Rain = 0
KPG1 182316Z 28013KT 32/05 A2972 RMK A01 T03220048  RH  018%=      5-min Rain = 0
KPG1 182317Z 29010KT 32/05 A2972 RMK A01 T03220048  RH  018%=      5-min Rain = 0
KPG1 182318Z 29010G17KT 32/05 A2972 RMK A01 T03220048  RH  018%=      5-min Rain = 0
KPG1 182319Z 29014G19KT 32/05 A2972 RMK A01 T03220047  RH  018%=      5-min Rain = 0
KPG1 182320Z 28013G19KT 32/05 A2972 RMK A01 T03220048  RH  018%=      5-min Rain = 0
KPG1 182321Z 29010KT 32/05 A2972 RMK A01 T03210048  RH  018%=      5-min Rain = 0
KPG1 182322Z 29013G20KT 32/05 A2972 RMK A01 T03210048  RH  018%=      5-min Rain = 0
KPG1 182323Z 29012KT 32/05 A2972 RMK A01 T03210048  RH  018%=      5-min Rain = 0
KPG1 182324Z 28012G17KT 32/05 A2972 RMK A01 T03200048  RH  018%=      5-min Rain = 0
KPG1 182325Z 28015KT 32/05 A2972 RMK A01 T03200049  RH  018%=      5-min Rain = 0
KPG1 182326Z 29010KT 32/05 A2972 RMK A01 T03200049  RH  018%=      5-min Rain = 0
KPG1 182327Z 28010KT 32/05 A2972 RMK A01 T03200049  RH  018%=      5-min Rain = 0
KPG1 182328Z 29009G15KT 32/05 A2972 RMK A01 T03200049  RH  018%=      5-min Rain = 0
KPG1 182329Z 30009G14KT 32/05 A2972 RMK A01 T03200049  RH  018%=      5-min Rain = 0
KPG1 182330Z 29010KT 32/05 A2972 RMK A01 T03200050  RH  018%=      5-min Rain = 0
KPG1 182331Z 29010KT 32/05 A2972 RMK A01 T03190051  RH  018%=      5-min Rain = 0
KPG1 182332Z 29009KT 32/05 A2972 RMK A01 T03190051  RH  019%=      5-min Rain = 0
KPG1 182333Z 29011KT 32/05 A2972 RMK A01 T03190051  RH  019%=      5-min Rain = 0
KPG1 182334Z 29013G19KT 32/05 A2972 RMK A01 T03190052  RH  019%=      5-min Rain = 0
KPG1 182335Z 29011KT 32/05 A2972 RMK A01 T03180052  RH  019%=      5-min Rain = 0
KPG1 182336Z 29010KT 32/05 A2972 RMK A01 T03170052  RH  019%=      5-min Rain = 0
KPG1 182337Z 30009KT 32/05 A2972 RMK A01 T03170054  RH  019%=      5-min Rain = 0
KPG1 182338Z 30009KT 32/05 A2972 RMK A01 T03170053  RH  019%=      5-min Rain = 0
KPG1 182339Z 29013KT 32/05 A2972 RMK A01 T03170052  RH  019%=      5-min Rain = 0
KPG1 182340Z 28012KT 32/05 A2972 RMK A01 T03170052  RH  019%=      5-min Rain = 0
KPG1 182341Z 28011KT 32/05 A2972 RMK A01 T03170053  RH  019%=      5-min Rain = 0
KPG1 182342Z 29010KT 32/05 A2972 RMK A01 T03160052  RH  019%=      5-min Rain = 0
KPG1 182343Z 28010G17KT 32/05 A2973 RMK A01 T03160052  RH  019%=      5-min Rain = 0
KPG1 182344Z 28012KT 32/05 A2972 RMK A01 T03160052  RH  019%=      5-min Rain = 0
KPG1 182345Z 29010KT 32/05 A2972 RMK A01 T03150052  RH  019%=      5-min Rain = 0
KPG1 182346Z 29008KT 32/05 A2972 RMK A01 T03160053  RH  019%=      5-min Rain = 0
KPG1 182347Z 28008KT 32/05 A2972 RMK A01 T03150053  RH  019%=      5-min Rain = 0
KPG1 182348Z 29011KT 32/05 A2972 RMK A01 T03150054  RH  019%=      5-min Rain = 0
KPG1 182349Z 31009KT 31/05 A2972 RMK A01 T03140054  RH  019%=      5-min Rain = 0
KPG1 182350Z 29009KT 32/06 A2972 RMK A01 T03150055  RH  020%=      5-min Rain = 0
KPG1 182351Z 30007KT 31/05 A2973 RMK A01 T03140054  RH  020%=      5-min Rain = 0
KPG1 182352Z 29010KT 31/06 A2972 RMK A01 T03140055  RH  020%=      5-min Rain = 0
KPG1 182353Z 30009KT 31/06 A2973 RMK A01 T03140056  RH  020%=      5-min Rain = 0
KPG1 182354Z 30009KT 31/06 A2973 RMK A01 T03130056  RH  020%=      5-min Rain = 0
KPG1 182355Z 29006KT 31/06 A2973 RMK A01 T03130055  RH  020%=      5-min Rain = 0
KPG1 182356Z 31008KT 31/06 A2973 RMK A01 T03120056  RH  020%=      5-min Rain = 0
KPG1 182357Z 28008KT 31/06 A2973 RMK A01 T03120057  RH  020%=      5-min Rain = 0
KPG1 182358Z 28010KT 31/06 A2973 RMK A01 T03120057  RH  020%=      5-min Rain = 0
KPG1 182359Z 28007KT 31/06 A2973 RMK A01 T03110057  RH  020%=      5-min Rain = 0
KPG1 190000Z 28008KT 31/06 A2973 RMK A01 T03110058  RH  020%=      5-min Rain = 0
KPG1 190001Z 28009KT 31/06 A2973 RMK A01 T03100057  RH  020%=      5-min Rain = 0
KPG1 190002Z 28006KT 31/06 A2973 RMK A01 T03100058  RH  020%=      5-min Rain = 0
KPG1 190003Z 28006KT 31/06 A2973 RMK A01 T03100058  RH  021%=      5-min Rain = 0
KPG1 190004Z 27006KT 31/06 A2973 RMK A01 T03090058  RH  021%=      5-min Rain = 0
KPG1 190005Z 29010KT 31/06 A2973 RMK A01 T03080058  RH  021%=      5-min Rain = 0
KPG1 190006Z 29008KT 31/06 A2973 RMK A01 T03090058  RH  021%=      5-min Rain = 0
KPG1 190007Z 28010KT 31/06 A2973 RMK A01 T03080058  RH  021%=      5-min Rain = 0
KPG1 190008Z 28009KT 31/06 A2973 RMK A01 T03080059  RH  021%=      5-min Rain = 0
KPG1 190009Z 29009KT 31/06 A2973 RMK A01 T03070060  RH  021%=      5-min Rain = 0
KPG1 190010Z 30006KT 31/06 A2973 RMK A01 T03070060  RH  021%=      5-min Rain = 0
KPG1 190011Z 29007KT 31/06 A2973 RMK A01 T03070060  RH  021%=      5-min Rain = 0
KPG1 190012Z 31007KT 31/06 A2973 RMK A01 T03060060  RH  021%=      5-min Rain = 0
KPG1 190013Z 31008KT 31/06 A2973 RMK A01 T03060061  RH  021%=      5-min Rain = 0
KPG1 190014Z 32006KT 31/06 A2973 RMK A01 T03050061  RH  021%=      5-min Rain = 0
KPG1 190015Z 31007KT 31/06 A2973 RMK A01 T03050061  RH  022%=      5-min Rain = 0
KPG1 190016Z 32004KT 30/06 A2973 RMK A01 T03040061  RH  022%=      5-min Rain = 0
KPG1 190017Z 31007KT 30/06 A2973 RMK A01 T03040061  RH  022%=      5-min Rain = 0
KPG1 190018Z 31008KT 30/06 A2973 RMK A01 T03040061  RH  022%=      5-min Rain = 0
KPG1 190019Z 31008KT 30/06 A2973 RMK A01 T03040062  RH  022%=      5-min Rain = 0
KPG1 190020Z 31008KT 30/06 A2973 RMK A01 T03040062  RH  022%=      5-min Rain = 0
KPG1 190021Z 31009KT 30/06 A2973 RMK A01 T03040062  RH  022%=      5-min Rain = 0
KPG1 190022Z 32007KT 30/06 A2973 RMK A01 T03040062  RH  022%=      5-min Rain = 0
KPG1 190023Z 31009KT 30/06 A2973 RMK A01 T03030062  RH  022%=      5-min Rain = 0
KPG1 190024Z 31008KT 30/06 A2973 RMK A01 T03030063  RH  022%=      5-min Rain = 0
KPG1 190025Z 32008KT 30/06 A2973 RMK A01 T03030062  RH  022%=      5-min Rain = 0
KPG1 190026Z 31009KT 30/06 A2973 RMK A01 T03030063  RH  022%=      5-min Rain = 0
KPG1 190027Z 31007KT 30/06 A2973 RMK A01 T03020063  RH  022%=      5-min Rain = 0
KPG1 190028Z 30010KT 30/06 A2973 RMK A01 T03020063  RH  022%=      5-min Rain = 0
KPG1 190029Z 32007KT 30/06 A2973 RMK A01 T03020063  RH  022%=      5-min Rain = 0
KPG1 190030Z 32006KT 30/06 A2973 RMK A01 T03020063  RH  022%=      5-min Rain = 0
KPG1 190031Z 32005KT 30/06 A2973 RMK A01 T03010063  RH  022%=      5-min Rain = 0
KPG1 190032Z 31009KT 30/06 A2973 RMK A01 T03000063  RH  022%=      5-min Rain = 0
KPG1 190033Z 31007KT 30/06 A2973 RMK A01 T03000064  RH  023%=      5-min Rain = 0
KPG1 190034Z 31006KT 30/06 A2973 RMK A01 T03000064  RH  023%=      5-min Rain = 0
KPG1 190035Z 31006KT 30/06 A2973 RMK A01 T03000064  RH  023%=      5-min Rain = 0
KPG1 190036Z 32007KT 30/06 A2973 RMK A01 T03000064  RH  023%=      5-min Rain = 0
KPG1 190037Z 34005KT 30/06 A2973 RMK A01 T03000064  RH  023%=      5-min Rain = 0
KPG1 190038Z 32005KT 30/06 A2973 RMK A01 T02980063  RH  023%=      5-min Rain = 0
KPG1 190039Z 32007KT 30/06 A2973 RMK A01 T02970064  RH  023%=      5-min Rain = 0
KPG1 190040Z 33005KT 30/07 A2973 RMK A01 T02970065  RH  023%=      5-min Rain = 0
KPG1 190041Z 33005KT 30/06 A2973 RMK A01 T02970064  RH  023%=      5-min Rain = 0
KPG1 190042Z 34004KT 30/06 A2973 RMK A01 T02960064  RH  023%=      5-min Rain = 0
KPG1 190043Z 34004KT 30/06 A2973 RMK A01 T02960064  RH  023%=      5-min Rain = 0
KPG1 190044Z 33006KT 30/07 A2973 RMK A01 T02960065  RH  023%=      5-min Rain = 0
KPG1 190045Z 32005KT 30/07 A2973 RMK A01 T02960065  RH  023%=      5-min Rain = 0
KPG1 190046Z 32007KT 30/07 A2973 RMK A01 T02960065  RH  023%=      5-min Rain = 0
KPG1 190047Z 33006KT 30/07 A2973 RMK A01 T02960065  RH  023%=      5-min Rain = 0
KPG1 190048Z 32005KT 30/07 A2973 RMK A01 T02960065  RH  023%=      5-min Rain = 0
KPG1 190049Z 32005KT 30/07 A2973 RMK A01 T02950065  RH  023%=      5-min Rain = 0
KPG1 190050Z 33007KT 30/07 A2973 RMK A01 T02950066  RH  024%=      5-min Rain = 0
KPG1 190051Z 32007KT 30/07 A2973 RMK A01 T02950066  RH  024%=      5-min Rain = 0
KPG1 190052Z 32008KT 30/07 A2973 RMK A01 T02960066  RH  023%=      5-min Rain = 0
KPG1 190053Z 33008KT 30/07 A2973 RMK A01 T02960066  RH  024%=      5-min Rain = 0
KPG1 190054Z 33007KT 30/07 A2974 RMK A01 T02960066  RH  024%=      5-min Rain = 0
KPG1 190055Z 33006KT 30/07 A2974 RMK A01 T02960066  RH  024%=      5-min Rain = 0
KPG1 190056Z 32008KT 30/07 A2974 RMK A01 T02960067  RH  024%=      5-min Rain = 0
KPG1 190057Z 33008KT 30/07 A2974 RMK A01 T02960067  RH  024%=      5-min Rain = 0
KPG1 190058Z 33007KT 30/07 A2974 RMK A01 T02960067  RH  024%=      5-min Rain = 0
KPG1 190059Z 33007KT 30/07 A2974 RMK A01 T02960067  RH  024%=      5-min Rain = 0
KPG1 190100Z 33007KT 30/07 A2974 RMK A01 T02970067  RH  024%=      5-min Rain = 0
KPG1 190101Z 31008KT 30/07 A2974 RMK A01 T02960067  RH  024%=      5-min Rain = 0
KPG1 190102Z 32008KT 30/07 A2974 RMK A01 T02950068  RH  024%=      5-min Rain = 0
KPG1 190103Z 33007KT 30/07 A2974 RMK A01 T02960068  RH  024%=      5-min Rain = 0
KPG1 190104Z 33007KT 30/07 A2974 RMK A01 T02960068  RH  024%=      5-min Rain = 0
KPG1 190105Z 32009KT 30/07 A2974 RMK A01 T02950068  RH  024%=      5-min Rain = 0
KPG1 190106Z 31008KT 30/07 A2974 RMK A01 T02960069  RH  024%=      5-min Rain = 0
KPG1 190107Z 32007KT 30/07 A2974 RMK A01 T02960069  RH  024%=      5-min Rain = 0
KPG1 190108Z 31006KT 30/07 A2974 RMK A01 T02960069  RH  024%=      5-min Rain = 0
KPG1 190109Z 32007KT 30/07 A2974 RMK A01 T02960069  RH  024%=      5-min Rain = 0
KPG1 190110Z 31008KT 30/07 A2974 RMK A01 T02950070  RH  024%=      5-min Rain = 0
KPG1 190111Z 32008KT 30/07 A2974 RMK A01 T02950070  RH  024%=      5-min Rain = 0
KPG1 190112Z 32007KT 30/07 A2974 RMK A01 T02960070  RH  024%=      5-min Rain = 0
KPG1 190113Z 32007KT 30/07 A2974 RMK A01 T02960070  RH  024%=      5-min Rain = 0
KPG1 190114Z 32007KT 30/07 A2974 RMK A01 T02950070  RH  024%=      5-min Rain = 0
KPG1 190115Z 31007KT 30/07 A2974 RMK A01 T02950070  RH  024%=      5-min Rain = 0
KPG1 190116Z 31007KT 30/07 A2974 RMK A01 T02950070  RH  024%=      5-min Rain = 0
KPG1 190117Z 32006KT 30/07 A2974 RMK A01 T02950070  RH  024%=      5-min Rain = 0
KPG1 190118Z 31007KT 30/07 A2974 RMK A01 T02950071  RH  024%=      5-min Rain = 0
KPG1 190119Z 31006KT 30/07 A2974 RMK A01 T02950071  RH  024%=      5-min Rain = 0
KPG1 190120Z 31008KT 30/07 A2974 RMK A01 T02950071  RH  024%=      5-min Rain = 0
KPG1 190121Z 31009KT 30/07 A2974 RMK A01 T02950071  RH  024%=      5-min Rain = 0
KPG1 190122Z 31007KT 30/07 A2974 RMK A01 T02960071  RH  024%=      5-min Rain = 0
KPG1 190123Z 31008KT 30/07 A2974 RMK A01 T02960072  RH  024%=      5-min Rain = 0
KPG1 190124Z 31007KT 30/07 A2974 RMK A01 T02960072  RH  024%=      5-min Rain = 0
KPG1 190125Z 30009KT 30/07 A2974 RMK A01 T02960072  RH  024%=      5-min Rain = 0
KPG1 190126Z 32009KT 30/07 A2975 RMK A01 T02960072  RH  024%=      5-min Rain = 0
KPG1 190127Z 31009KT 30/07 A2975 RMK A01 T02970072  RH  024%=      5-min Rain = 0
KPG1 190128Z 32008KT 30/07 A2975 RMK A01 T02960072  RH  024%=      5-min Rain = 0
KPG1 190129Z 31010KT 30/07 A2975 RMK A01 T02960072  RH  024%=      5-min Rain = 0
KPG1 190130Z 31008KT 30/07 A2975 RMK A01 T02960072  RH  025%=      5-min Rain = 0
KPG1 190131Z 32007KT 30/07 A2975 RMK A01 T02960072  RH  025%=      5-min Rain = 0
KPG1 190132Z 32006KT 30/07 A2975 RMK A01 T02960072  RH  025%=      5-min Rain = 0
KPG1 190133Z 32008KT 30/07 A2975 RMK A01 T02950072  RH  025%=      5-min Rain = 0
KPG1 190134Z 32008KT 30/07 A2975 RMK A01 T02950073  RH  025%=      5-min Rain = 0
KPG1 190135Z 32006KT 30/07 A2975 RMK A01 T02950073  RH  025%=      5-min Rain = 0
KPG1 190136Z 32007KT 29/07 A2975 RMK A01 T02940073  RH  025%=      5-min Rain = 0
KPG1 190137Z 32006KT 29/07 A2975 RMK A01 T02940073  RH  025%=      5-min Rain = 0
KPG1 190138Z 32005KT 29/07 A2975 RMK A01 T02940073  RH  025%=      5-min Rain = 0
KPG1 190139Z 32006KT 29/07 A2975 RMK A01 T02940073  RH  025%=      5-min Rain = 0
KPG1 190140Z 32007KT 29/07 A2975 RMK A01 T02940073  RH  025%=      5-min Rain = 0
KPG1 190141Z 32008KT 29/07 A2975 RMK A01 T02940073  RH  025%=      5-min Rain = 0
KPG1 190142Z 32008KT 30/07 A2975 RMK A01 T02950074  RH  025%=      5-min Rain = 0
KPG1 190143Z 32009KT 30/07 A2975 RMK A01 T02960074  RH  025%=      5-min Rain = 0
KPG1 190144Z 32008KT 30/07 A2975 RMK A01 T02950073  RH  025%=      5-min Rain = 0
KPG1 190145Z 32008KT 30/07 A2975 RMK A01 T02950073  RH  025%=      5-min Rain = 0
KPG1 190146Z 33008KT 30/07 A2975 RMK A01 T02960074  RH  025%=      5-min Rain = 0
KPG1 190147Z 32008KT 30/07 A2975 RMK A01 T02960074  RH  025%=      5-min Rain = 0
KPG1 190148Z 33006KT 30/07 A2975 RMK A01 T02950074  RH  025%=      5-min Rain = 0
KPG1 190149Z 32007KT 30/07 A2975 RMK A01 T02950074  RH  025%=      5-min Rain = 0
KPG1 190150Z 32007KT 30/07 A2975 RMK A01 T02950074  RH  025%=      5-min Rain = 0
KPG1 190151Z 32007KT 29/07 A2975 RMK A01 T02940074  RH  025%=      5-min Rain = 0
KPG1 190152Z 32009KT 29/07 A2975 RMK A01 T02940074  RH  025%=      5-min Rain = 0
KPG1 190153Z 32008KT 29/07 A2975 RMK A01 T02940074  RH  025%=      5-min Rain = 0
KPG1 190154Z 32006KT 29/07 A2975 RMK A01 T02940074  RH  025%=      5-min Rain = 0
KPG1 190155Z 33007KT 29/08 A2975 RMK A01 T02940075  RH  025%=      5-min Rain = 0
KPG1 190156Z 32007KT 29/07 A2975 RMK A01 T02940074  RH  025%=      5-min Rain = 0
KPG1 190157Z 32007KT 29/08 A2975 RMK A01 T02940075  RH  025%=      5-min Rain = 0
KPG1 190158Z 33007KT 29/08 A2976 RMK A01 T02930075  RH  025%=      5-min Rain = 0
KPG1 190159Z 33007KT 29/08 A2976 RMK A01 T02930075  RH  025%=      5-min Rain = 0
KPG1 190200Z 33007KT 29/08 A2976 RMK A01 T02930075  RH  025%=      5-min Rain = 0
KPG1 190201Z 32007KT 29/08 A2976 RMK A01 T02930075  RH  025%=      5-min Rain = 0
KPG1 190202Z 33007KT 29/07 A2976 RMK A01 T02930074  RH  025%=      5-min Rain = 0
KPG1 190203Z 33007KT 29/08 A2976 RMK A01 T02940075  RH  025%=      5-min Rain = 0
KPG1 190204Z 32008KT 29/08 A2976 RMK A01 T02940075  RH  025%=      5-min Rain = 0
KPG1 190205Z 32007KT 29/08 A2976 RMK A01 T02940075  RH  025%=      5-min Rain = 0
KPG1 190206Z 32007KT 29/08 A2975 RMK A01 T02940075  RH  025%=      5-min Rain = 0
KPG1 190207Z 34006KT 29/08 A2975 RMK A01 T02930075  RH  025%=      5-min Rain = 0
KPG1 190208Z 32007KT 29/08 A2975 RMK A01 T02920075  RH  025%=      5-min Rain = 0
KPG1 190209Z 33006KT 29/08 A2975 RMK A01 T02920075  RH  026%=      5-min Rain = 0
KPG1 190210Z 32006KT 29/08 A2976 RMK A01 T02920075  RH  026%=      5-min Rain = 0
KPG1 190211Z 32006KT 29/08 A2976 RMK A01 T02920075  RH  026%=      5-min Rain = 0
KPG1 190212Z 32006KT 29/08 A2976 RMK A01 T02910075  RH  026%=      5-min Rain = 0
KPG1 190213Z 32007KT 29/08 A2976 RMK A01 T02910075  RH  026%=      5-min Rain = 0
KPG1 190214Z 32007KT 29/07 A2976 RMK A01 T02910074  RH  026%=      5-min Rain = 0
KPG1 190215Z 32007KT 29/08 A2976 RMK A01 T02930075  RH  025%=      5-min Rain = 0
KPG1 190216Z 32006KT 29/08 A2976 RMK A01 T02930075  RH  025%=      5-min Rain = 0
KPG1 190217Z 32007KT 29/08 A2976 RMK A01 T02930075  RH  025%=      5-min Rain = 0
KPG1 190218Z 32006KT 29/08 A2976 RMK A01 T02930075  RH  025%=      5-min Rain = 0
KPG1 190219Z 32006KT 29/08 A2976 RMK A01 T02920075  RH  026%=      5-min Rain = 0
KPG1 190220Z 32007KT 29/07 A2976 RMK A01 T02910074  RH  026%=      5-min Rain = 0
KPG1 190221Z 33007KT 29/08 A2976 RMK A01 T02900075  RH  026%=      5-min Rain = 0
KPG1 190222Z 32006KT 29/08 A2976 RMK A01 T02900075  RH  026%=      5-min Rain = 0
KPG1 190223Z 32006KT 29/08 A2976 RMK A01 T02900075  RH  026%=      5-min Rain = 0
KPG1 190224Z 32006KT 29/08 A2976 RMK A01 T02900075  RH  026%=      5-min Rain = 0
KPG1 190225Z 31005KT 29/08 A2976 RMK A01 T02900075  RH  026%=      5-min Rain = 0
KPG1 190226Z 31005KT 29/08 A2976 RMK A01 T02890075  RH  026%=      5-min Rain = 0
KPG1 190227Z 31005KT 29/08 A2976 RMK A01 T02900075  RH  026%=      5-min Rain = 0
KPG1 190228Z 31006KT 29/08 A2976 RMK A01 T02890075  RH  026%=      5-min Rain = 0
KPG1 190229Z 32006KT 29/08 A2976 RMK A01 T02890075  RH  026%=      5-min Rain = 0
KPG1 190230Z 32005KT 29/08 A2976 RMK A01 T02880075  RH  026%=      5-min Rain = 0
KPG1 190231Z 31005KT 29/08 A2976 RMK A01 T02880075  RH  026%=      5-min Rain = 0
KPG1 190232Z 32005KT 29/08 A2976 RMK A01 T02870075  RH  026%=      5-min Rain = 0
KPG1 190233Z 32006KT 29/08 A2976 RMK A01 T02870075  RH  026%=      5-min Rain = 0
KPG1 190234Z 32005KT 29/08 A2976 RMK A01 T02870075  RH  026%=      5-min Rain = 0
KPG1 190235Z 32005KT 29/08 A2976 RMK A01 T02860075  RH  027%=      5-min Rain = 0
KPG1 190236Z 32005KT 29/08 A2976 RMK A01 T02860075  RH  027%=      5-min Rain = 0
KPG1 190237Z 31003KT 29/08 A2976 RMK A01 T02850075  RH  027%=      5-min Rain = 0
KPG1 190238Z 18002KT 28/07 A2976 RMK A01 T02830073  RH  026%=      5-min Rain = 0
KPG1 190239Z 18003KT 28/07 A2976 RMK A01 T02780070  RH  027%=      5-min Rain = 0
KPG1 190240Z 18004KT 27/07 A2976 RMK A01 T02730068  RH  027%=      5-min Rain = 0
KPG1 190241Z 17003KT 27/07 A2976 RMK A01 T02680067  RH  028%=      5-min Rain = 0
KPG1 190242Z 20002KT 26/07 A2976 RMK A01 T02640067  RH  029%=      5-min Rain = 0
KPG1 190243Z 23002KT 26/07 A2976 RMK A01 T02610067  RH  029%=      5-min Rain = 0
KPG1 190244Z 20002KT 26/07 A2976 RMK A01 T02580066  RH  029%=      5-min Rain = 0
KPG1 190245Z 26002KT 26/07 A2976 RMK A01 T02550066  RH  030%=      5-min Rain = 0
KPG1 190246Z 26002KT 25/07 A2976 RMK A01 T02540067  RH  030%=      5-min Rain = 0
KPG1 190247Z 25003KT 25/07 A2976 RMK A01 T02530067  RH  030%=      5-min Rain = 0
KPG1 190248Z 21001KT 25/07 A2976 RMK A01 T02530067  RH  030%=      5-min Rain = 0
KPG1 190249Z 23002KT 25/07 A2976 RMK A01 T02530067  RH  030%=      5-min Rain = 0
KPG1 190250Z 28003KT 26/07 A2976 RMK A01 T02550067  RH  030%=      5-min Rain = 0
KPG1 190251Z 26003KT 26/07 A2976 RMK A01 T02550067  RH  030%=      5-min Rain = 0
KPG1 190252Z 26003KT 25/07 A2977 RMK A01 T02540067  RH  030%=      5-min Rain = 0
KPG1 190253Z 26003KT 25/07 A2977 RMK A01 T02540067  RH  030%=      5-min Rain = 0
KPG1 190254Z 27003KT 25/07 A2977 RMK A01 T02540067  RH  030%=      5-min Rain = 0
KPG1 190255Z 27003KT 25/07 A2977 RMK A01 T02530068  RH  031%=      5-min Rain = 0
KPG1 190256Z 26002KT 25/07 A2977 RMK A01 T02510067  RH  031%=      5-min Rain = 0
KPG1 190257Z 25001KT 25/07 A2977 RMK A01 T02510067  RH  031%=      5-min Rain = 0
KPG1 190258Z 25002KT 25/07 A2977 RMK A01 T02520067  RH  031%=      5-min Rain = 0
KPG1 190259Z 25002KT 25/07 A2977 RMK A01 T02530067  RH  031%=      5-min Rain = 0
KPG1 190300Z 24002KT 25/07 A2977 RMK A01 T02530067  RH  031%=      5-min Rain = 0
KPG1 190301Z 24002KT 25/07 A2977 RMK A01 T02520067  RH  031%=      5-min Rain = 0
KPG1 190302Z 25002KT 25/07 A2977 RMK A01 T02530067  RH  030%=      5-min Rain = 0
KPG1 190303Z 24002KT 25/07 A2977 RMK A01 T02540067  RH  030%=      5-min Rain = 0
KPG1 190304Z 24002KT 25/07 A2977 RMK A01 T02530067  RH  030%=      5-min Rain = 0
KPG1 190305Z 25002KT 25/07 A2977 RMK A01 T02530067  RH  030%=      5-min Rain = 0
KPG1 190306Z 26002KT 25/07 A2977 RMK A01 T02520067  RH  031%=      5-min Rain = 0
KPG1 190307Z 27001KT 25/07 A2977 RMK A01 T02520068  RH  031%=      5-min Rain = 0
KPG1 190308Z 28001KT 25/07 A2977 RMK A01 T02510067  RH  031%=      5-min Rain = 0
KPG1 190309Z 01001KT 25/07 A2977 RMK A01 T02480066  RH  031%=      5-min Rain = 0
KPG1 190310Z 02001KT 24/06 A2977 RMK A01 T02440064  RH  032%=      5-min Rain = 0
KPG1 190311Z 02001KT 24/07 A2977 RMK A01 T02400065  RH  032%=      5-min Rain = 0
KPG1 190312Z 01002KT 24/07 A2977 RMK A01 T02380065  RH  033%=      5-min Rain = 0
KPG1 190313Z 01002KT 24/06 A2977 RMK A01 T02360064  RH  033%=      5-min Rain = 0
KPG1 190314Z 02002KT 23/07 A2977 RMK A01 T02340066  RH  034%=      5-min Rain = 0
KPG1 190315Z 03002KT 23/07 A2977 RMK A01 T02330067  RH  034%=      5-min Rain = 0
KPG1 190316Z 04002KT 23/07 A2977 RMK A01 T02320066  RH  034%=      5-min Rain = 0
KPG1 190317Z 04002KT 23/07 A2977 RMK A01 T02320067  RH  034%=      5-min Rain = 0
KPG1 190318Z 04003KT 23/07 A2977 RMK A01 T02320067  RH  034%=      5-min Rain = 0
KPG1 190319Z 05003KT 23/07 A2977 RMK A01 T02330066  RH  034%=      5-min Rain = 0
KPG1 190320Z 05003KT 23/07 A2977 RMK A01 T02330067  RH  034%=      5-min Rain = 0
KPG1 190321Z 05003KT 23/07 A2977 RMK A01 T02320067  RH  034%=      5-min Rain = 0
KPG1 190322Z 05003KT 23/07 A2977 RMK A01 T02320066  RH  034%=      5-min Rain = 0
KPG1 190323Z 05003KT 23/07 A2977 RMK A01 T02300065  RH  034%=      5-min Rain = 0
KPG1 190324Z 05003KT 23/07 A2977 RMK A01 T02300067  RH  035%=      5-min Rain = 0
KPG1 190325Z 05002KT 23/07 A2977 RMK A01 T02310068  RH  035%=      5-min Rain = 0
KPG1 190326Z 06003KT 23/07 A2977 RMK A01 T02330069  RH  035%=      5-min Rain = 0
KPG1 190327Z 04001KT 24/07 A2977 RMK A01 T02350069  RH  034%=      5-min Rain = 0
KPG1 190328Z 04000KT 24/07 A2977 RMK A01 T02360069  RH  034%=      5-min Rain = 0
KPG1 190329Z 00000KT 24/07 A2977 RMK A01 T02360069  RH  034%=      5-min Rain = 0
KPG1 190330Z 00000KT 24/07 A2977 RMK A01 T02370069  RH  034%=      5-min Rain = 0
KPG1 190331Z 28000KT 24/07 A2977 RMK A01 T02380069  RH  034%=      5-min Rain = 0
KPG1 190332Z 28001KT 24/07 A2977 RMK A01 T02390069  RH  034%=      5-min Rain = 0
KPG1 190333Z 29001KT 24/07 A2977 RMK A01 T02400069  RH  033%=      5-min Rain = 0
KPG1 190334Z 28001KT 24/07 A2977 RMK A01 T02420070  RH  033%=      5-min Rain = 0
KPG1 190335Z 27001KT 24/07 A2977 RMK A01 T02430070  RH  033%=      5-min Rain = 0
KPG1 190336Z 28002KT 25/07 A2978 RMK A01 T02450070  RH  033%=      5-min Rain = 0
KPG1 190337Z 27001KT 25/07 A2978 RMK A01 T02450070  RH  032%=      5-min Rain = 0
KPG1 190338Z 26002KT 25/07 A2978 RMK A01 T02480070  RH  032%=      5-min Rain = 0
KPG1 190339Z 26001KT 25/07 A2978 RMK A01 T02500071  RH  032%=      5-min Rain = 0
KPG1 190340Z 26001KT 25/07 A2978 RMK A01 T02510071  RH  032%=      5-min Rain = 0
KPG1 190341Z 27001KT 25/07 A2978 RMK A01 T02510070  RH  032%=      5-min Rain = 0
KPG1 190342Z 30001KT 25/07 A2978 RMK A01 T02500070  RH  032%=      5-min Rain = 0
KPG1 190343Z 30000KT 25/07 A2978 RMK A01 T02480070  RH  032%=      5-min Rain = 0
KPG1 190344Z 01001KT 25/07 A2978 RMK A01 T02470070  RH  032%=      5-min Rain = 0
KPG1 190345Z 02001KT 25/07 A2978 RMK A01 T02470070  RH  032%=      5-min Rain = 0
KPG1 190346Z 04001KT 25/07 A2978 RMK A01 T02460070  RH  032%=      5-min Rain = 0
KPG1 190347Z 04001KT 25/07 A2978 RMK A01 T02460071  RH  033%=      5-min Rain = 0
KPG1 190348Z 03002KT 25/07 A2978 RMK A01 T02460071  RH  033%=      5-min Rain = 0
KPG1 190349Z 01002KT 25/07 A2978 RMK A01 T02460071  RH  033%=      5-min Rain = 0
KPG1 190350Z 36002KT 25/07 A2978 RMK A01 T02470072  RH  033%=      5-min Rain = 0
KPG1 190351Z 36002KT 25/07 A2978 RMK A01 T02490073  RH  033%=      5-min Rain = 0
KPG1 190352Z 34002KT 25/07 A2978 RMK A01 T02490073  RH  032%=      5-min Rain = 0
KPG1 190353Z 33003KT 25/07 A2978 RMK A01 T02500073  RH  032%=      5-min Rain = 0
KPG1 190354Z 33004KT 25/07 A2978 RMK A01 T02520074  RH  032%=      5-min Rain = 0
KPG1 190355Z 32004KT 25/07 A2978 RMK A01 T02540074  RH  032%=      5-min Rain = 0
KPG1 190356Z 32004KT 26/08 A2978 RMK A01 T02570075  RH  032%=      5-min Rain = 0
KPG1 190357Z 31004KT 26/08 A2978 RMK A01 T02610077  RH  031%=      5-min Rain = 0
KPG1 190358Z 31004KT 27/08 A2978 RMK A01 T02650077  RH  030%=      5-min Rain = 0
KPG1 190359Z 31004KT 27/08 A2978 RMK A01 T02680078  RH  030%=      5-min Rain = 0
KPG1 190400Z 31005KT 27/08 A2978 RMK A01 T02700078  RH  030%=      5-min Rain = 0
KPG1 190401Z 31005KT 27/08 A2978 RMK A01 T02720077  RH  029%=      5-min Rain = 0
KPG1 190402Z 31005KT 27/08 A2978 RMK A01 T02740078  RH  029%=      5-min Rain = 0
KPG1 190403Z 30005KT 27/08 A2978 RMK A01 T02740077  RH  029%=      5-min Rain = 0
KPG1 190404Z 30005KT 27/08 A2978 RMK A01 T02740078  RH  029%=      5-min Rain = 0
KPG1 190405Z 30005KT 28/08 A2978 RMK A01 T02750078  RH  029%=      5-min Rain = 0
KPG1 190406Z 29004KT 28/08 A2978 RMK A01 T02750078  RH  029%=      5-min Rain = 0
KPG1 190407Z 28003KT 28/08 A2978 RMK A01 T02750077  RH  029%=      5-min Rain = 0
KPG1 190408Z 17003KT 27/07 A2979 RMK A01 T02700072  RH  028%=      5-min Rain = 0
KPG1 190409Z 17004KT 26/07 A2979 RMK A01 T02580069  RH  030%=      5-min Rain = 0
KPG1 190410Z 17004KT 25/07 A2979 RMK A01 T02480067  RH  031%=      5-min Rain = 0
KPG1 190411Z 17004KT 24/07 A2979 RMK A01 T02400065  RH  033%=      5-min Rain = 0
KPG1 190412Z 16005KT 23/06 A2979 RMK A01 T02330064  RH  034%=      5-min Rain = 0
KPG1 190413Z 15005KT 23/06 A2979 RMK A01 T02290064  RH  034%=      5-min Rain = 0
KPG1 190414Z 15005KT 23/06 A2979 RMK A01 T02260064  RH  035%=      5-min Rain = 0
KPG1 190415Z 16005KT 23/06 A2979 RMK A01 T02250064  RH  035%=      5-min Rain = 0
KPG1 190416Z 15005KT 22/06 A2979 RMK A01 T02230064  RH  036%=      5-min Rain = 0
KPG1 190417Z 16004KT 22/06 A2979 RMK A01 T02220064  RH  036%=      5-min Rain = 0
KPG1 190418Z 17003KT 22/06 A2979 RMK A01 T02210064  RH  036%=      5-min Rain = 0
KPG1 190419Z 17003KT 22/06 A2979 RMK A01 T02190064  RH  037%=      5-min Rain = 0
KPG1 190420Z 16003KT 22/06 A2979 RMK A01 T02180064  RH  037%=      5-min Rain = 0
KPG1 190421Z 17002KT 22/07 A2979 RMK A01 T02180065  RH  037%=      5-min Rain = 0
KPG1 190422Z 21002KT 22/07 A2979 RMK A01 T02180065  RH  037%=      5-min Rain = 0
KPG1 190423Z 23002KT 22/07 A2979 RMK A01 T02180065  RH  037%=      5-min Rain = 0
KPG1 190424Z 24001KT 22/07 A2979 RMK A01 T02200066  RH  037%=      5-min Rain = 0
KPG1 190425Z 31001KT 22/07 A2979 RMK A01 T02220067  RH  037%=      5-min Rain = 0
KPG1 190426Z 29002KT 22/07 A2979 RMK A01 T02240068  RH  036%=      5-min Rain = 0
KPG1 190427Z 29002KT 23/07 A2979 RMK A01 T02260068  RH  036%=      5-min Rain = 0
KPG1 190428Z 31001KT 23/07 A2979 RMK A01 T02290069  RH  036%=      5-min Rain = 0
KPG1 190429Z 21003KT 23/07 A2979 RMK A01 T02290069  RH  035%=      5-min Rain = 0
KPG1 190430Z 19004KT 23/07 A2979 RMK A01 T02280067  RH  035%=      5-min Rain = 0
KPG1 190431Z 18004KT 23/07 A2979 RMK A01 T02250066  RH  036%=      5-min Rain = 0
KPG1 190432Z 18003KT 22/07 A2979 RMK A01 T02240066  RH  036%=      5-min Rain = 0
KPG1 190433Z 25002KT 22/07 A2979 RMK A01 T02230066  RH  036%=      5-min Rain = 0
KPG1 190434Z 27002KT 22/07 A298 RMK A01 T02230067  RH  036%=      5-min Rain = 0
KPG1 190435Z 17003KT 22/07 A2979 RMK A01 T02230068  RH  037%=      5-min Rain = 0
KPG1 190436Z 23002KT 23/07 A2979 RMK A01 T02260068  RH  036%=      5-min Rain = 0
KPG1 190437Z 23002KT 23/07 A2979 RMK A01 T02280069  RH  036%=      5-min Rain = 0
KPG1 190438Z 31001KT 23/07 A2979 RMK A01 T02300070  RH  035%=      5-min Rain = 0
KPG1 190439Z 32004KT 23/07 A2979 RMK A01 T02320071  RH  035%=      5-min Rain = 0
KPG1 190440Z 32007KT 24/08 A2979 RMK A01 T02410078  RH  035%=      5-min Rain = 0
KPG1 190441Z 32008KT 25/08 A2979 RMK A01 T02540080  RH  033%=      5-min Rain = 0
KPG1 190442Z 32012KT 26/08 A2979 RMK A01 T02640078  RH  031%=      5-min Rain = 0
KPG1 190443Z 32014KT 27/08 A2979 RMK A01 T02720075  RH  029%=      5-min Rain = 0
KPG1 190444Z 32013G19KT 28/07 A2979 RMK A01 T02770074  RH  028%=      5-min Rain = 0
KPG1 190445Z 32015G20KT 28/07 A2979 RMK A01 T02810073  RH  027%=      5-min Rain = 0
KPG1 190446Z 31013KT 28/07 A2979 RMK A01 T02830072  RH  027%=      5-min Rain = 0
KPG1 190447Z 32013KT 28/07 A2979 RMK A01 T02840072  RH  026%=      5-min Rain = 0
KPG1 190448Z 32013KT 28/07 A2979 RMK A01 T02840071  RH  026%=      5-min Rain = 0
KPG1 190449Z 33011G16KT 28/07 A2979 RMK A01 T02840070  RH  026%=      5-min Rain = 0
KPG1 190450Z 32014G19KT 28/07 A2979 RMK A01 T02840070  RH  026%=      5-min Rain = 0
KPG1 190451Z 32014KT 28/07 A2979 RMK A01 T02840069  RH  026%=      5-min Rain = 0
KPG1 190452Z 32012KT 29/07 A2979 RMK A01 T02850069  RH  025%=      5-min Rain = 0
KPG1 190453Z 31013KT 29/07 A2979 RMK A01 T02850068  RH  025%=      5-min Rain = 0
KPG1 190454Z 32012KT 29/07 A2979 RMK A01 T02860068  RH  025%=      5-min Rain = 0
KPG1 190455Z 32011KT 29/07 A2979 RMK A01 T02850068  RH  025%=      5-min Rain = 0
KPG1 190456Z 32012KT 29/07 A2979 RMK A01 T02850067  RH  025%=      5-min Rain = 0
KPG1 190457Z 31011KT 29/07 A2979 RMK A01 T02850068  RH  025%=      5-min Rain = 0
KPG1 190458Z 32011KT 29/07 A2979 RMK A01 T02850068  RH  025%=      5-min Rain = 0
KPG1 190459Z 31010KT 29/07 A298 RMK A01 T02860068  RH  025%=      5-min Rain = 0

Page generated in 0.09 seconds.